<?xml version="1.0" encoding="UTF-8" standalone="no" ?>
<gpx xmlns="http://www.topografix.com/GPX/1/1" xmlns:xsi="http://www.w3.org/2001/XMLSchema-instance" xsi:schemaLocation="http://www.topografix.com/GPX/1/1 http://www.topografix.com/GPX/1/1/gpx.xsd" version="1.1" creator="VisuGPX - https://www.visugpx.com">
  <metadata>
    <name>vtt circuit n°8 la varenne champtoceaux gr 3</name>
    <desc><![CDATA[sortie du club vsm avec du très beau temps,un bon début de circuit pour l'échauffement]]></desc>
  </metadata>
  <trk>
    <name><![CDATA[2018-06-23-15-04-25 on GPSies.com]]></name>
    <trkseg>
      <trkpt lat="47.33915" lon="-1.27465">
        <ele>15</ele>
        <time>2018-06-23T15:04:25Z</time>
      </trkpt>
      <trkpt lat="47.33918" lon="-1.27468">
        <ele>15</ele>
        <time>2018-06-23T15:04:31Z</time>
      </trkpt>
      <trkpt lat="47.33922" lon="-1.2747">
        <ele>15</ele>
        <time>2018-06-23T15:04:33Z</time>
      </trkpt>
      <trkpt lat="47.33922" lon="-1.2748">
        <ele>15</ele>
        <time>2018-06-23T15:04:36Z</time>
      </trkpt>
      <trkpt lat="47.3392" lon="-1.27491">
        <ele>15</ele>
        <time>2018-06-23T15:04:39Z</time>
      </trkpt>
      <trkpt lat="47.33917" lon="-1.27501">
        <ele>15</ele>
        <time>2018-06-23T15:04:42Z</time>
      </trkpt>
      <trkpt lat="47.33915" lon="-1.27524">
        <ele>15</ele>
        <time>2018-06-23T15:04:48Z</time>
      </trkpt>
      <trkpt lat="47.3392" lon="-1.27539">
        <ele>16</ele>
        <time>2018-06-23T15:04:52Z</time>
      </trkpt>
      <trkpt lat="47.33927" lon="-1.27554">
        <ele>16</ele>
        <time>2018-06-23T15:04:55Z</time>
      </trkpt>
      <trkpt lat="47.33931" lon="-1.27567">
        <ele>15</ele>
        <time>2018-06-23T15:04:57Z</time>
      </trkpt>
      <trkpt lat="47.33933" lon="-1.27573">
        <ele>15</ele>
        <time>2018-06-23T15:04:58Z</time>
      </trkpt>
      <trkpt lat="47.33932" lon="-1.2759">
        <ele>15</ele>
        <time>2018-06-23T15:05:01Z</time>
      </trkpt>
      <trkpt lat="47.33929" lon="-1.27602">
        <ele>14</ele>
        <time>2018-06-23T15:05:03Z</time>
      </trkpt>
      <trkpt lat="47.33928" lon="-1.27608">
        <ele>14</ele>
        <time>2018-06-23T15:05:04Z</time>
      </trkpt>
      <trkpt lat="47.33925" lon="-1.27625">
        <ele>14</ele>
        <time>2018-06-23T15:05:07Z</time>
      </trkpt>
      <trkpt lat="47.33922" lon="-1.27641">
        <ele>14</ele>
        <time>2018-06-23T15:05:10Z</time>
      </trkpt>
      <trkpt lat="47.33915" lon="-1.27667">
        <ele>15</ele>
        <time>2018-06-23T15:05:15Z</time>
      </trkpt>
      <trkpt lat="47.33908" lon="-1.27709">
        <ele>14</ele>
        <time>2018-06-23T15:05:21Z</time>
      </trkpt>
      <trkpt lat="47.33899" lon="-1.27753">
        <ele>14</ele>
        <time>2018-06-23T15:05:29Z</time>
      </trkpt>
      <trkpt lat="47.33889" lon="-1.27791">
        <ele>15</ele>
        <time>2018-06-23T15:05:36Z</time>
      </trkpt>
      <trkpt lat="47.33877" lon="-1.27815">
        <ele>15</ele>
        <time>2018-06-23T15:05:41Z</time>
      </trkpt>
      <trkpt lat="47.33877" lon="-1.27822">
        <ele>15</ele>
        <time>2018-06-23T15:05:42Z</time>
      </trkpt>
      <trkpt lat="47.33876" lon="-1.27847">
        <ele>15</ele>
        <time>2018-06-23T15:05:46Z</time>
      </trkpt>
      <trkpt lat="47.33876" lon="-1.27853">
        <ele>15</ele>
        <time>2018-06-23T15:05:47Z</time>
      </trkpt>
      <trkpt lat="47.33875" lon="-1.2789">
        <ele>15</ele>
        <time>2018-06-23T15:05:53Z</time>
      </trkpt>
      <trkpt lat="47.33875" lon="-1.27897">
        <ele>15</ele>
        <time>2018-06-23T15:05:54Z</time>
      </trkpt>
      <trkpt lat="47.33873" lon="-1.27924">
        <ele>15</ele>
        <time>2018-06-23T15:05:58Z</time>
      </trkpt>
      <trkpt lat="47.33873" lon="-1.27959">
        <ele>15</ele>
        <time>2018-06-23T15:06:03Z</time>
      </trkpt>
      <trkpt lat="47.33872" lon="-1.27965">
        <ele>15</ele>
        <time>2018-06-23T15:06:04Z</time>
      </trkpt>
      <trkpt lat="47.33873" lon="-1.27988">
        <ele>15</ele>
        <time>2018-06-23T15:06:07Z</time>
      </trkpt>
      <trkpt lat="47.33872" lon="-1.28001">
        <ele>15</ele>
        <time>2018-06-23T15:06:09Z</time>
      </trkpt>
      <trkpt lat="47.33868" lon="-1.28036">
        <ele>15</ele>
        <time>2018-06-23T15:06:15Z</time>
      </trkpt>
      <trkpt lat="47.3386" lon="-1.28079">
        <ele>15</ele>
        <time>2018-06-23T15:06:22Z</time>
      </trkpt>
      <trkpt lat="47.33854" lon="-1.28125">
        <ele>15</ele>
        <time>2018-06-23T15:06:30Z</time>
      </trkpt>
      <trkpt lat="47.33849" lon="-1.28172">
        <ele>16</ele>
        <time>2018-06-23T15:06:37Z</time>
      </trkpt>
      <trkpt lat="47.33843" lon="-1.28228">
        <ele>15</ele>
        <time>2018-06-23T15:06:45Z</time>
      </trkpt>
      <trkpt lat="47.33834" lon="-1.28277">
        <ele>15</ele>
        <time>2018-06-23T15:06:53Z</time>
      </trkpt>
      <trkpt lat="47.33823" lon="-1.28326">
        <ele>16</ele>
        <time>2018-06-23T15:07:01Z</time>
      </trkpt>
      <trkpt lat="47.33817" lon="-1.2836">
        <ele>16</ele>
        <time>2018-06-23T15:07:07Z</time>
      </trkpt>
      <trkpt lat="47.33814" lon="-1.28379">
        <ele>16</ele>
        <time>2018-06-23T15:07:10Z</time>
      </trkpt>
      <trkpt lat="47.33809" lon="-1.28428">
        <ele>16</ele>
        <time>2018-06-23T15:07:17Z</time>
      </trkpt>
      <trkpt lat="47.33805" lon="-1.28484">
        <ele>16</ele>
        <time>2018-06-23T15:07:25Z</time>
      </trkpt>
      <trkpt lat="47.338" lon="-1.28525">
        <ele>16</ele>
        <time>2018-06-23T15:07:31Z</time>
      </trkpt>
      <trkpt lat="47.33802" lon="-1.28537">
        <ele>16</ele>
        <time>2018-06-23T15:07:33Z</time>
      </trkpt>
      <trkpt lat="47.33805" lon="-1.2855">
        <ele>16</ele>
        <time>2018-06-23T15:07:35Z</time>
      </trkpt>
      <trkpt lat="47.33811" lon="-1.28573">
        <ele>15</ele>
        <time>2018-06-23T15:07:40Z</time>
      </trkpt>
      <trkpt lat="47.33804" lon="-1.28589">
        <ele>16</ele>
        <time>2018-06-23T15:07:44Z</time>
      </trkpt>
      <trkpt lat="47.33802" lon="-1.28593">
        <ele>16</ele>
        <time>2018-06-23T15:07:45Z</time>
      </trkpt>
      <trkpt lat="47.338" lon="-1.28597">
        <ele>16</ele>
        <time>2018-06-23T15:07:46Z</time>
      </trkpt>
      <trkpt lat="47.33796" lon="-1.28618">
        <ele>17</ele>
        <time>2018-06-23T15:07:50Z</time>
      </trkpt>
      <trkpt lat="47.33792" lon="-1.28658">
        <ele>17</ele>
        <time>2018-06-23T15:07:56Z</time>
      </trkpt>
      <trkpt lat="47.33782" lon="-1.28689">
        <ele>17</ele>
        <time>2018-06-23T15:08:01Z</time>
      </trkpt>
      <trkpt lat="47.3378" lon="-1.28705">
        <ele>17</ele>
        <time>2018-06-23T15:08:03Z</time>
      </trkpt>
      <trkpt lat="47.3378" lon="-1.28721">
        <ele>17</ele>
        <time>2018-06-23T15:08:05Z</time>
      </trkpt>
      <trkpt lat="47.33776" lon="-1.28769">
        <ele>16</ele>
        <time>2018-06-23T15:08:12Z</time>
      </trkpt>
      <trkpt lat="47.33772" lon="-1.28798">
        <ele>17</ele>
        <time>2018-06-23T15:08:16Z</time>
      </trkpt>
      <trkpt lat="47.33773" lon="-1.28813">
        <ele>17</ele>
        <time>2018-06-23T15:08:18Z</time>
      </trkpt>
      <trkpt lat="47.33774" lon="-1.28846">
        <ele>17</ele>
        <time>2018-06-23T15:08:23Z</time>
      </trkpt>
      <trkpt lat="47.33774" lon="-1.28861">
        <ele>17</ele>
        <time>2018-06-23T15:08:25Z</time>
      </trkpt>
      <trkpt lat="47.33774" lon="-1.28868">
        <ele>17</ele>
        <time>2018-06-23T15:08:26Z</time>
      </trkpt>
      <trkpt lat="47.33769" lon="-1.28887">
        <ele>16</ele>
        <time>2018-06-23T15:08:29Z</time>
      </trkpt>
      <trkpt lat="47.33764" lon="-1.28898">
        <ele>17</ele>
        <time>2018-06-23T15:08:31Z</time>
      </trkpt>
      <trkpt lat="47.33761" lon="-1.28916">
        <ele>17</ele>
        <time>2018-06-23T15:08:34Z</time>
      </trkpt>
      <trkpt lat="47.33758" lon="-1.28946">
        <ele>17</ele>
        <time>2018-06-23T15:08:38Z</time>
      </trkpt>
      <trkpt lat="47.33759" lon="-1.28954">
        <ele>17</ele>
        <time>2018-06-23T15:08:39Z</time>
      </trkpt>
      <trkpt lat="47.33758" lon="-1.28982">
        <ele>17</ele>
        <time>2018-06-23T15:08:43Z</time>
      </trkpt>
      <trkpt lat="47.33758" lon="-1.2899">
        <ele>17</ele>
        <time>2018-06-23T15:08:44Z</time>
      </trkpt>
      <trkpt lat="47.33758" lon="-1.29023">
        <ele>16</ele>
        <time>2018-06-23T15:08:49Z</time>
      </trkpt>
      <trkpt lat="47.33757" lon="-1.29071">
        <ele>16</ele>
        <time>2018-06-23T15:08:55Z</time>
      </trkpt>
      <trkpt lat="47.33754" lon="-1.29115">
        <ele>16</ele>
        <time>2018-06-23T15:09:01Z</time>
      </trkpt>
      <trkpt lat="47.33754" lon="-1.29143">
        <ele>16</ele>
        <time>2018-06-23T15:09:05Z</time>
      </trkpt>
      <trkpt lat="47.33751" lon="-1.29156">
        <ele>16</ele>
        <time>2018-06-23T15:09:07Z</time>
      </trkpt>
      <trkpt lat="47.33748" lon="-1.2917">
        <ele>16</ele>
        <time>2018-06-23T15:09:09Z</time>
      </trkpt>
      <trkpt lat="47.33742" lon="-1.29194">
        <ele>16</ele>
        <time>2018-06-23T15:09:12Z</time>
      </trkpt>
      <trkpt lat="47.33735" lon="-1.29224">
        <ele>16</ele>
        <time>2018-06-23T15:09:16Z</time>
      </trkpt>
      <trkpt lat="47.33734" lon="-1.29232">
        <ele>16</ele>
        <time>2018-06-23T15:09:17Z</time>
      </trkpt>
      <trkpt lat="47.33729" lon="-1.29254">
        <ele>16</ele>
        <time>2018-06-23T15:09:20Z</time>
      </trkpt>
      <trkpt lat="47.33724" lon="-1.29274">
        <ele>16</ele>
        <time>2018-06-23T15:09:23Z</time>
      </trkpt>
      <trkpt lat="47.33707" lon="-1.29339">
        <ele>17</ele>
        <time>2018-06-23T15:09:33Z</time>
      </trkpt>
      <trkpt lat="47.33691" lon="-1.29392">
        <ele>16</ele>
        <time>2018-06-23T15:09:41Z</time>
      </trkpt>
      <trkpt lat="47.33673" lon="-1.29439">
        <ele>16</ele>
        <time>2018-06-23T15:09:49Z</time>
      </trkpt>
      <trkpt lat="47.33662" lon="-1.29467">
        <ele>16</ele>
        <time>2018-06-23T15:09:54Z</time>
      </trkpt>
      <trkpt lat="47.33662" lon="-1.29474">
        <ele>16</ele>
        <time>2018-06-23T15:09:55Z</time>
      </trkpt>
      <trkpt lat="47.33655" lon="-1.29511">
        <ele>16</ele>
        <time>2018-06-23T15:10:00Z</time>
      </trkpt>
      <trkpt lat="47.33653" lon="-1.29518">
        <ele>16</ele>
        <time>2018-06-23T15:10:01Z</time>
      </trkpt>
      <trkpt lat="47.3365" lon="-1.29537">
        <ele>16</ele>
        <time>2018-06-23T15:10:04Z</time>
      </trkpt>
      <trkpt lat="47.33648" lon="-1.29542">
        <ele>16</ele>
        <time>2018-06-23T15:10:05Z</time>
      </trkpt>
      <trkpt lat="47.33634" lon="-1.29547">
        <ele>16</ele>
        <time>2018-06-23T15:10:08Z</time>
      </trkpt>
      <trkpt lat="47.33614" lon="-1.29538">
        <ele>16</ele>
        <time>2018-06-23T15:10:12Z</time>
      </trkpt>
      <trkpt lat="47.33605" lon="-1.29531">
        <ele>16</ele>
        <time>2018-06-23T15:10:14Z</time>
      </trkpt>
      <trkpt lat="47.33584" lon="-1.29513">
        <ele>17</ele>
        <time>2018-06-23T15:10:19Z</time>
      </trkpt>
      <trkpt lat="47.33545" lon="-1.29481">
        <ele>16</ele>
        <time>2018-06-23T15:10:28Z</time>
      </trkpt>
      <trkpt lat="47.3351" lon="-1.29454">
        <ele>16</ele>
        <time>2018-06-23T15:10:36Z</time>
      </trkpt>
      <trkpt lat="47.33473" lon="-1.29425">
        <ele>16</ele>
        <time>2018-06-23T15:10:45Z</time>
      </trkpt>
      <trkpt lat="47.33427" lon="-1.29387">
        <ele>16</ele>
        <time>2018-06-23T15:10:56Z</time>
      </trkpt>
      <trkpt lat="47.33407" lon="-1.29368">
        <ele>16</ele>
        <time>2018-06-23T15:11:03Z</time>
      </trkpt>
      <trkpt lat="47.33408" lon="-1.29351">
        <ele>16</ele>
        <time>2018-06-23T15:11:07Z</time>
      </trkpt>
      <trkpt lat="47.33405" lon="-1.29341">
        <ele>15</ele>
        <time>2018-06-23T15:11:48Z</time>
      </trkpt>
      <trkpt lat="47.33397" lon="-1.29324">
        <ele>15</ele>
        <time>2018-06-23T15:11:52Z</time>
      </trkpt>
      <trkpt lat="47.3338" lon="-1.29289">
        <ele>16</ele>
        <time>2018-06-23T15:11:58Z</time>
      </trkpt>
      <trkpt lat="47.33376" lon="-1.29283">
        <ele>16</ele>
        <time>2018-06-23T15:11:59Z</time>
      </trkpt>
      <trkpt lat="47.33346" lon="-1.2924">
        <ele>16</ele>
        <time>2018-06-23T15:12:07Z</time>
      </trkpt>
      <trkpt lat="47.33337" lon="-1.29233">
        <ele>16</ele>
        <time>2018-06-23T15:12:09Z</time>
      </trkpt>
      <trkpt lat="47.33314" lon="-1.29214">
        <ele>16</ele>
        <time>2018-06-23T15:12:14Z</time>
      </trkpt>
      <trkpt lat="47.33283" lon="-1.29189">
        <ele>16</ele>
        <time>2018-06-23T15:12:21Z</time>
      </trkpt>
      <trkpt lat="47.33252" lon="-1.2917">
        <ele>15</ele>
        <time>2018-06-23T15:12:28Z</time>
      </trkpt>
      <trkpt lat="47.33228" lon="-1.29157">
        <ele>16</ele>
        <time>2018-06-23T15:12:34Z</time>
      </trkpt>
      <trkpt lat="47.33216" lon="-1.2915">
        <ele>16</ele>
        <time>2018-06-23T15:12:37Z</time>
      </trkpt>
      <trkpt lat="47.33204" lon="-1.29146">
        <ele>17</ele>
        <time>2018-06-23T15:12:40Z</time>
      </trkpt>
      <trkpt lat="47.332" lon="-1.29146">
        <ele>17</ele>
        <time>2018-06-23T15:12:41Z</time>
      </trkpt>
      <trkpt lat="47.33192" lon="-1.29152">
        <ele>17</ele>
        <time>2018-06-23T15:12:43Z</time>
      </trkpt>
      <trkpt lat="47.33185" lon="-1.29158">
        <ele>18</ele>
        <time>2018-06-23T15:12:45Z</time>
      </trkpt>
      <trkpt lat="47.33182" lon="-1.29162">
        <ele>18</ele>
        <time>2018-06-23T15:12:46Z</time>
      </trkpt>
      <trkpt lat="47.33175" lon="-1.29169">
        <ele>18</ele>
        <time>2018-06-23T15:12:48Z</time>
      </trkpt>
      <trkpt lat="47.33172" lon="-1.29181">
        <ele>19</ele>
        <time>2018-06-23T15:12:50Z</time>
      </trkpt>
      <trkpt lat="47.3317" lon="-1.29211">
        <ele>19</ele>
        <time>2018-06-23T15:12:54Z</time>
      </trkpt>
      <trkpt lat="47.33169" lon="-1.29217">
        <ele>19</ele>
        <time>2018-06-23T15:12:55Z</time>
      </trkpt>
      <trkpt lat="47.33163" lon="-1.29226">
        <ele>19</ele>
        <time>2018-06-23T15:12:57Z</time>
      </trkpt>
      <trkpt lat="47.33151" lon="-1.29245">
        <ele>19</ele>
        <time>2018-06-23T15:13:01Z</time>
      </trkpt>
      <trkpt lat="47.33148" lon="-1.2925">
        <ele>19</ele>
        <time>2018-06-23T15:13:02Z</time>
      </trkpt>
      <trkpt lat="47.33146" lon="-1.29255">
        <ele>20</ele>
        <time>2018-06-23T15:13:03Z</time>
      </trkpt>
      <trkpt lat="47.33132" lon="-1.2928">
        <ele>21</ele>
        <time>2018-06-23T15:13:08Z</time>
      </trkpt>
      <trkpt lat="47.3313" lon="-1.29286">
        <ele>21</ele>
        <time>2018-06-23T15:13:09Z</time>
      </trkpt>
      <trkpt lat="47.33127" lon="-1.293">
        <ele>21</ele>
        <time>2018-06-23T15:13:11Z</time>
      </trkpt>
      <trkpt lat="47.33126" lon="-1.29316">
        <ele>21</ele>
        <time>2018-06-23T15:13:13Z</time>
      </trkpt>
      <trkpt lat="47.33135" lon="-1.29344">
        <ele>19</ele>
        <time>2018-06-23T15:13:17Z</time>
      </trkpt>
      <trkpt lat="47.33143" lon="-1.29355">
        <ele>18</ele>
        <time>2018-06-23T15:13:19Z</time>
      </trkpt>
      <trkpt lat="47.33146" lon="-1.29367">
        <ele>17</ele>
        <time>2018-06-23T15:13:21Z</time>
      </trkpt>
      <trkpt lat="47.33144" lon="-1.29374">
        <ele>17</ele>
        <time>2018-06-23T15:13:22Z</time>
      </trkpt>
      <trkpt lat="47.33141" lon="-1.2938">
        <ele>16</ele>
        <time>2018-06-23T15:13:23Z</time>
      </trkpt>
      <trkpt lat="47.33135" lon="-1.29393">
        <ele>16</ele>
        <time>2018-06-23T15:13:25Z</time>
      </trkpt>
      <trkpt lat="47.33126" lon="-1.29405">
        <ele>16</ele>
        <time>2018-06-23T15:13:27Z</time>
      </trkpt>
      <trkpt lat="47.33118" lon="-1.29417">
        <ele>16</ele>
        <time>2018-06-23T15:13:29Z</time>
      </trkpt>
      <trkpt lat="47.33086" lon="-1.29459">
        <ele>15</ele>
        <time>2018-06-23T15:13:37Z</time>
      </trkpt>
      <trkpt lat="47.33055" lon="-1.29506">
        <ele>15</ele>
        <time>2018-06-23T15:13:46Z</time>
      </trkpt>
      <trkpt lat="47.33027" lon="-1.29553">
        <ele>15</ele>
        <time>2018-06-23T15:13:55Z</time>
      </trkpt>
      <trkpt lat="47.33004" lon="-1.29592">
        <ele>15</ele>
        <time>2018-06-23T15:14:03Z</time>
      </trkpt>
      <trkpt lat="47.32983" lon="-1.29634">
        <ele>16</ele>
        <time>2018-06-23T15:14:11Z</time>
      </trkpt>
      <trkpt lat="47.32977" lon="-1.29644">
        <ele>16</ele>
        <time>2018-06-23T15:14:13Z</time>
      </trkpt>
      <trkpt lat="47.32965" lon="-1.29661">
        <ele>16</ele>
        <time>2018-06-23T15:14:17Z</time>
      </trkpt>
      <trkpt lat="47.32946" lon="-1.29695">
        <ele>16</ele>
        <time>2018-06-23T15:14:24Z</time>
      </trkpt>
      <trkpt lat="47.32917" lon="-1.29744">
        <ele>16</ele>
        <time>2018-06-23T15:14:34Z</time>
      </trkpt>
      <trkpt lat="47.32895" lon="-1.29787">
        <ele>16</ele>
        <time>2018-06-23T15:14:42Z</time>
      </trkpt>
      <trkpt lat="47.32869" lon="-1.29834">
        <ele>16</ele>
        <time>2018-06-23T15:14:51Z</time>
      </trkpt>
      <trkpt lat="47.32845" lon="-1.29882">
        <ele>17</ele>
        <time>2018-06-23T15:15:00Z</time>
      </trkpt>
      <trkpt lat="47.32826" lon="-1.29917">
        <ele>17</ele>
        <time>2018-06-23T15:15:07Z</time>
      </trkpt>
      <trkpt lat="47.32798" lon="-1.29971">
        <ele>16</ele>
        <time>2018-06-23T15:15:17Z</time>
      </trkpt>
      <trkpt lat="47.32774" lon="-1.30019">
        <ele>16</ele>
        <time>2018-06-23T15:15:26Z</time>
      </trkpt>
      <trkpt lat="47.32755" lon="-1.30055">
        <ele>16</ele>
        <time>2018-06-23T15:15:33Z</time>
      </trkpt>
      <trkpt lat="47.32731" lon="-1.30103">
        <ele>16</ele>
        <time>2018-06-23T15:15:42Z</time>
      </trkpt>
      <trkpt lat="47.32707" lon="-1.30143">
        <ele>16</ele>
        <time>2018-06-23T15:15:50Z</time>
      </trkpt>
      <trkpt lat="47.32682" lon="-1.30182">
        <ele>16</ele>
        <time>2018-06-23T15:15:58Z</time>
      </trkpt>
      <trkpt lat="47.32663" lon="-1.30214">
        <ele>16</ele>
        <time>2018-06-23T15:16:05Z</time>
      </trkpt>
      <trkpt lat="47.32641" lon="-1.30248">
        <ele>16</ele>
        <time>2018-06-23T15:16:13Z</time>
      </trkpt>
      <trkpt lat="47.32639" lon="-1.3025">
        <ele>16</ele>
        <time>2018-06-23T15:16:14Z</time>
      </trkpt>
      <trkpt lat="47.32637" lon="-1.3025">
        <ele>16</ele>
        <time>2018-06-23T15:16:15Z</time>
      </trkpt>
      <trkpt lat="47.32632" lon="-1.30248">
        <ele>16</ele>
        <time>2018-06-23T15:16:17Z</time>
      </trkpt>
      <trkpt lat="47.3263" lon="-1.30242">
        <ele>16</ele>
        <time>2018-06-23T15:16:19Z</time>
      </trkpt>
      <trkpt lat="47.32622" lon="-1.30227">
        <ele>16</ele>
        <time>2018-06-23T15:16:23Z</time>
      </trkpt>
      <trkpt lat="47.32602" lon="-1.3018">
        <ele>16</ele>
        <time>2018-06-23T15:16:33Z</time>
      </trkpt>
      <trkpt lat="47.32583" lon="-1.30147">
        <ele>16</ele>
        <time>2018-06-23T15:16:41Z</time>
      </trkpt>
      <trkpt lat="47.32562" lon="-1.30136">
        <ele>17</ele>
        <time>2018-06-23T15:16:47Z</time>
      </trkpt>
      <trkpt lat="47.32559" lon="-1.30137">
        <ele>17</ele>
        <time>2018-06-23T15:16:48Z</time>
      </trkpt>
      <trkpt lat="47.32552" lon="-1.30145">
        <ele>17</ele>
        <time>2018-06-23T15:16:51Z</time>
      </trkpt>
      <trkpt lat="47.32535" lon="-1.30168">
        <ele>17</ele>
        <time>2018-06-23T15:16:58Z</time>
      </trkpt>
      <trkpt lat="47.32513" lon="-1.30194">
        <ele>16</ele>
        <time>2018-06-23T15:17:07Z</time>
      </trkpt>
      <trkpt lat="47.32494" lon="-1.30218">
        <ele>16</ele>
        <time>2018-06-23T15:17:15Z</time>
      </trkpt>
      <trkpt lat="47.3249" lon="-1.3023">
        <ele>17</ele>
        <time>2018-06-23T15:18:21Z</time>
      </trkpt>
      <trkpt lat="47.32488" lon="-1.30248">
        <ele>17</ele>
        <time>2018-06-23T15:18:25Z</time>
      </trkpt>
      <trkpt lat="47.32482" lon="-1.30282">
        <ele>17</ele>
        <time>2018-06-23T15:18:30Z</time>
      </trkpt>
      <trkpt lat="47.32465" lon="-1.30321">
        <ele>16</ele>
        <time>2018-06-23T15:18:37Z</time>
      </trkpt>
      <trkpt lat="47.3246" lon="-1.30331">
        <ele>16</ele>
        <time>2018-06-23T15:18:39Z</time>
      </trkpt>
      <trkpt lat="47.32445" lon="-1.30349">
        <ele>15</ele>
        <time>2018-06-23T15:18:44Z</time>
      </trkpt>
      <trkpt lat="47.32429" lon="-1.30361">
        <ele>16</ele>
        <time>2018-06-23T15:18:49Z</time>
      </trkpt>
      <trkpt lat="47.324" lon="-1.30379">
        <ele>16</ele>
        <time>2018-06-23T15:18:56Z</time>
      </trkpt>
      <trkpt lat="47.32371" lon="-1.30401">
        <ele>15</ele>
        <time>2018-06-23T15:19:04Z</time>
      </trkpt>
      <trkpt lat="47.32359" lon="-1.3041">
        <ele>15</ele>
        <time>2018-06-23T15:19:07Z</time>
      </trkpt>
      <trkpt lat="47.32348" lon="-1.3042">
        <ele>15</ele>
        <time>2018-06-23T15:19:10Z</time>
      </trkpt>
      <trkpt lat="47.32328" lon="-1.30448">
        <ele>16</ele>
        <time>2018-06-23T15:19:17Z</time>
      </trkpt>
      <trkpt lat="47.32305" lon="-1.30485">
        <ele>16</ele>
        <time>2018-06-23T15:19:26Z</time>
      </trkpt>
      <trkpt lat="47.32284" lon="-1.3052">
        <ele>16</ele>
        <time>2018-06-23T15:19:34Z</time>
      </trkpt>
      <trkpt lat="47.32266" lon="-1.30558">
        <ele>16</ele>
        <time>2018-06-23T15:19:41Z</time>
      </trkpt>
      <trkpt lat="47.32238" lon="-1.30606">
        <ele>15</ele>
        <time>2018-06-23T15:19:51Z</time>
      </trkpt>
      <trkpt lat="47.32215" lon="-1.30627">
        <ele>15</ele>
        <time>2018-06-23T15:19:58Z</time>
      </trkpt>
      <trkpt lat="47.32189" lon="-1.30645">
        <ele>16</ele>
        <time>2018-06-23T15:20:06Z</time>
      </trkpt>
      <trkpt lat="47.32165" lon="-1.30662">
        <ele>16</ele>
        <time>2018-06-23T15:20:14Z</time>
      </trkpt>
      <trkpt lat="47.32149" lon="-1.30684">
        <ele>16</ele>
        <time>2018-06-23T15:20:21Z</time>
      </trkpt>
      <trkpt lat="47.32138" lon="-1.30711">
        <ele>16</ele>
        <time>2018-06-23T15:20:27Z</time>
      </trkpt>
      <trkpt lat="47.32131" lon="-1.30753">
        <ele>15</ele>
        <time>2018-06-23T15:20:36Z</time>
      </trkpt>
      <trkpt lat="47.32124" lon="-1.30784">
        <ele>15</ele>
        <time>2018-06-23T15:20:44Z</time>
      </trkpt>
      <trkpt lat="47.3212" lon="-1.30819">
        <ele>16</ele>
        <time>2018-06-23T15:20:53Z</time>
      </trkpt>
      <trkpt lat="47.32111" lon="-1.30856">
        <ele>16</ele>
        <time>2018-06-23T15:21:00Z</time>
      </trkpt>
      <trkpt lat="47.32096" lon="-1.30903">
        <ele>16</ele>
        <time>2018-06-23T15:21:09Z</time>
      </trkpt>
      <trkpt lat="47.32086" lon="-1.30927">
        <ele>16</ele>
        <time>2018-06-23T15:21:14Z</time>
      </trkpt>
      <trkpt lat="47.32069" lon="-1.30988">
        <ele>16</ele>
        <time>2018-06-23T15:21:26Z</time>
      </trkpt>
      <trkpt lat="47.32063" lon="-1.3101">
        <ele>16</ele>
        <time>2018-06-23T15:21:32Z</time>
      </trkpt>
      <trkpt lat="47.32061" lon="-1.31015">
        <ele>17</ele>
        <time>2018-06-23T15:21:35Z</time>
      </trkpt>
      <trkpt lat="47.32058" lon="-1.31021">
        <ele>17</ele>
        <time>2018-06-23T15:21:37Z</time>
      </trkpt>
      <trkpt lat="47.32047" lon="-1.31052">
        <ele>17</ele>
        <time>2018-06-23T15:21:43Z</time>
      </trkpt>
      <trkpt lat="47.32029" lon="-1.311">
        <ele>16</ele>
        <time>2018-06-23T15:21:52Z</time>
      </trkpt>
      <trkpt lat="47.32018" lon="-1.31144">
        <ele>16</ele>
        <time>2018-06-23T15:22:00Z</time>
      </trkpt>
      <trkpt lat="47.32006" lon="-1.31192">
        <ele>16</ele>
        <time>2018-06-23T15:22:09Z</time>
      </trkpt>
      <trkpt lat="47.31989" lon="-1.31235">
        <ele>16</ele>
        <time>2018-06-23T15:22:18Z</time>
      </trkpt>
      <trkpt lat="47.31978" lon="-1.31263">
        <ele>16</ele>
        <time>2018-06-23T15:22:24Z</time>
      </trkpt>
      <trkpt lat="47.3196" lon="-1.31314">
        <ele>15</ele>
        <time>2018-06-23T15:22:32Z</time>
      </trkpt>
      <trkpt lat="47.31945" lon="-1.31353">
        <ele>15</ele>
        <time>2018-06-23T15:22:38Z</time>
      </trkpt>
      <trkpt lat="47.31929" lon="-1.31396">
        <ele>15</ele>
        <time>2018-06-23T15:22:45Z</time>
      </trkpt>
      <trkpt lat="47.31926" lon="-1.31402">
        <ele>15</ele>
        <time>2018-06-23T15:22:46Z</time>
      </trkpt>
      <trkpt lat="47.31915" lon="-1.31431">
        <ele>15</ele>
        <time>2018-06-23T15:22:52Z</time>
      </trkpt>
      <trkpt lat="47.31903" lon="-1.31468">
        <ele>15</ele>
        <time>2018-06-23T15:22:59Z</time>
      </trkpt>
      <trkpt lat="47.31894" lon="-1.31504">
        <ele>15</ele>
        <time>2018-06-23T15:23:06Z</time>
      </trkpt>
      <trkpt lat="47.31882" lon="-1.31557">
        <ele>15</ele>
        <time>2018-06-23T15:23:16Z</time>
      </trkpt>
      <trkpt lat="47.31872" lon="-1.31606">
        <ele>16</ele>
        <time>2018-06-23T15:23:25Z</time>
      </trkpt>
      <trkpt lat="47.3187" lon="-1.31612">
        <ele>16</ele>
        <time>2018-06-23T15:23:26Z</time>
      </trkpt>
      <trkpt lat="47.31861" lon="-1.31655">
        <ele>16</ele>
        <time>2018-06-23T15:23:34Z</time>
      </trkpt>
      <trkpt lat="47.3186" lon="-1.31683">
        <ele>16</ele>
        <time>2018-06-23T15:23:40Z</time>
      </trkpt>
      <trkpt lat="47.31862" lon="-1.31726">
        <ele>15</ele>
        <time>2018-06-23T15:23:48Z</time>
      </trkpt>
      <trkpt lat="47.31856" lon="-1.31781">
        <ele>15</ele>
        <time>2018-06-23T15:23:57Z</time>
      </trkpt>
      <trkpt lat="47.31853" lon="-1.31798">
        <ele>15</ele>
        <time>2018-06-23T15:24:00Z</time>
      </trkpt>
      <trkpt lat="47.31849" lon="-1.3182">
        <ele>15</ele>
        <time>2018-06-23T15:24:04Z</time>
      </trkpt>
      <trkpt lat="47.3184" lon="-1.3186">
        <ele>15</ele>
        <time>2018-06-23T15:24:11Z</time>
      </trkpt>
      <trkpt lat="47.31828" lon="-1.31905">
        <ele>15</ele>
        <time>2018-06-23T15:24:20Z</time>
      </trkpt>
      <trkpt lat="47.31822" lon="-1.31936">
        <ele>15</ele>
        <time>2018-06-23T15:24:27Z</time>
      </trkpt>
      <trkpt lat="47.3182" lon="-1.31946">
        <ele>16</ele>
        <time>2018-06-23T15:24:30Z</time>
      </trkpt>
      <trkpt lat="47.31814" lon="-1.3195">
        <ele>17</ele>
        <time>2018-06-23T15:24:33Z</time>
      </trkpt>
      <trkpt lat="47.31811" lon="-1.3195">
        <ele>17</ele>
        <time>2018-06-23T15:24:34Z</time>
      </trkpt>
      <trkpt lat="47.318" lon="-1.31954">
        <ele>18</ele>
        <time>2018-06-23T15:24:39Z</time>
      </trkpt>
      <trkpt lat="47.31797" lon="-1.31958">
        <ele>18</ele>
        <time>2018-06-23T15:24:40Z</time>
      </trkpt>
      <trkpt lat="47.31789" lon="-1.31981">
        <ele>18</ele>
        <time>2018-06-23T15:24:45Z</time>
      </trkpt>
      <trkpt lat="47.31777" lon="-1.32015">
        <ele>17</ele>
        <time>2018-06-23T15:24:52Z</time>
      </trkpt>
      <trkpt lat="47.31771" lon="-1.3203">
        <ele>17</ele>
        <time>2018-06-23T15:24:55Z</time>
      </trkpt>
      <trkpt lat="47.31755" lon="-1.3207">
        <ele>17</ele>
        <time>2018-06-23T15:25:03Z</time>
      </trkpt>
      <trkpt lat="47.31741" lon="-1.32109">
        <ele>17</ele>
        <time>2018-06-23T15:25:11Z</time>
      </trkpt>
      <trkpt lat="47.3173" lon="-1.32145">
        <ele>17</ele>
        <time>2018-06-23T15:25:17Z</time>
      </trkpt>
      <trkpt lat="47.31722" lon="-1.32188">
        <ele>16</ele>
        <time>2018-06-23T15:25:23Z</time>
      </trkpt>
      <trkpt lat="47.31722" lon="-1.32195">
        <ele>16</ele>
        <time>2018-06-23T15:25:24Z</time>
      </trkpt>
      <trkpt lat="47.31717" lon="-1.32239">
        <ele>16</ele>
        <time>2018-06-23T15:25:31Z</time>
      </trkpt>
      <trkpt lat="47.31715" lon="-1.32245">
        <ele>16</ele>
        <time>2018-06-23T15:25:32Z</time>
      </trkpt>
      <trkpt lat="47.31705" lon="-1.32284">
        <ele>16</ele>
        <time>2018-06-23T15:25:38Z</time>
      </trkpt>
      <trkpt lat="47.31696" lon="-1.32329">
        <ele>15</ele>
        <time>2018-06-23T15:25:45Z</time>
      </trkpt>
      <trkpt lat="47.31689" lon="-1.32374">
        <ele>15</ele>
        <time>2018-06-23T15:25:52Z</time>
      </trkpt>
      <trkpt lat="47.31688" lon="-1.3238">
        <ele>15</ele>
        <time>2018-06-23T15:25:53Z</time>
      </trkpt>
      <trkpt lat="47.31684" lon="-1.32433">
        <ele>15</ele>
        <time>2018-06-23T15:26:01Z</time>
      </trkpt>
      <trkpt lat="47.31677" lon="-1.32486">
        <ele>15</ele>
        <time>2018-06-23T15:26:09Z</time>
      </trkpt>
      <trkpt lat="47.31662" lon="-1.32523">
        <ele>16</ele>
        <time>2018-06-23T15:26:16Z</time>
      </trkpt>
      <trkpt lat="47.31637" lon="-1.32573">
        <ele>16</ele>
        <time>2018-06-23T15:26:26Z</time>
      </trkpt>
      <trkpt lat="47.31619" lon="-1.32607">
        <ele>16</ele>
        <time>2018-06-23T15:26:33Z</time>
      </trkpt>
      <trkpt lat="47.31616" lon="-1.32612">
        <ele>16</ele>
        <time>2018-06-23T15:26:34Z</time>
      </trkpt>
      <trkpt lat="47.31595" lon="-1.32642">
        <ele>16</ele>
        <time>2018-06-23T15:26:41Z</time>
      </trkpt>
      <trkpt lat="47.31571" lon="-1.32672">
        <ele>17</ele>
        <time>2018-06-23T15:26:49Z</time>
      </trkpt>
      <trkpt lat="47.31557" lon="-1.32689">
        <ele>17</ele>
        <time>2018-06-23T15:26:54Z</time>
      </trkpt>
      <trkpt lat="47.31545" lon="-1.32705">
        <ele>18</ele>
        <time>2018-06-23T15:26:58Z</time>
      </trkpt>
      <trkpt lat="47.31524" lon="-1.3273">
        <ele>18</ele>
        <time>2018-06-23T15:27:05Z</time>
      </trkpt>
      <trkpt lat="47.31492" lon="-1.32769">
        <ele>17</ele>
        <time>2018-06-23T15:27:15Z</time>
      </trkpt>
      <trkpt lat="47.31466" lon="-1.32793">
        <ele>17</ele>
        <time>2018-06-23T15:27:22Z</time>
      </trkpt>
      <trkpt lat="47.31437" lon="-1.32816">
        <ele>16</ele>
        <time>2018-06-23T15:27:30Z</time>
      </trkpt>
      <trkpt lat="47.31409" lon="-1.32841">
        <ele>17</ele>
        <time>2018-06-23T15:27:39Z</time>
      </trkpt>
      <trkpt lat="47.31384" lon="-1.32863">
        <ele>17</ele>
        <time>2018-06-23T15:27:48Z</time>
      </trkpt>
      <trkpt lat="47.31359" lon="-1.32885">
        <ele>17</ele>
        <time>2018-06-23T15:27:56Z</time>
      </trkpt>
      <trkpt lat="47.31334" lon="-1.32908">
        <ele>17</ele>
        <time>2018-06-23T15:28:04Z</time>
      </trkpt>
      <trkpt lat="47.313" lon="-1.32937">
        <ele>17</ele>
        <time>2018-06-23T15:28:13Z</time>
      </trkpt>
      <trkpt lat="47.31268" lon="-1.32963">
        <ele>17</ele>
        <time>2018-06-23T15:28:22Z</time>
      </trkpt>
      <trkpt lat="47.31235" lon="-1.32986">
        <ele>16</ele>
        <time>2018-06-23T15:28:32Z</time>
      </trkpt>
      <trkpt lat="47.31203" lon="-1.33001">
        <ele>16</ele>
        <time>2018-06-23T15:28:41Z</time>
      </trkpt>
      <trkpt lat="47.31184" lon="-1.33011">
        <ele>16</ele>
        <time>2018-06-23T15:28:46Z</time>
      </trkpt>
      <trkpt lat="47.3118" lon="-1.33015">
        <ele>16</ele>
        <time>2018-06-23T15:28:47Z</time>
      </trkpt>
      <trkpt lat="47.31165" lon="-1.33032">
        <ele>16</ele>
        <time>2018-06-23T15:28:51Z</time>
      </trkpt>
      <trkpt lat="47.31162" lon="-1.33042">
        <ele>16</ele>
        <time>2018-06-23T15:28:53Z</time>
      </trkpt>
      <trkpt lat="47.31155" lon="-1.33055">
        <ele>16</ele>
        <time>2018-06-23T15:28:56Z</time>
      </trkpt>
      <trkpt lat="47.31152" lon="-1.33059">
        <ele>16</ele>
        <time>2018-06-23T15:28:57Z</time>
      </trkpt>
      <trkpt lat="47.31132" lon="-1.3308">
        <ele>15</ele>
        <time>2018-06-23T15:29:03Z</time>
      </trkpt>
      <trkpt lat="47.31114" lon="-1.33098">
        <ele>15</ele>
        <time>2018-06-23T15:29:09Z</time>
      </trkpt>
      <trkpt lat="47.31088" lon="-1.33126">
        <ele>15</ele>
        <time>2018-06-23T15:29:17Z</time>
      </trkpt>
      <trkpt lat="47.31067" lon="-1.33152">
        <ele>15</ele>
        <time>2018-06-23T15:29:24Z</time>
      </trkpt>
      <trkpt lat="47.31052" lon="-1.33174">
        <ele>15</ele>
        <time>2018-06-23T15:29:30Z</time>
      </trkpt>
      <trkpt lat="47.31038" lon="-1.33193">
        <ele>16</ele>
        <time>2018-06-23T15:29:36Z</time>
      </trkpt>
      <trkpt lat="47.31027" lon="-1.33203">
        <ele>16</ele>
        <time>2018-06-23T15:29:40Z</time>
      </trkpt>
      <trkpt lat="47.31019" lon="-1.33205">
        <ele>16</ele>
        <time>2018-06-23T15:29:42Z</time>
      </trkpt>
      <trkpt lat="47.31006" lon="-1.33214">
        <ele>17</ele>
        <time>2018-06-23T15:29:46Z</time>
      </trkpt>
      <trkpt lat="47.31" lon="-1.33221">
        <ele>17</ele>
        <time>2018-06-23T15:29:48Z</time>
      </trkpt>
      <trkpt lat="47.30982" lon="-1.33243">
        <ele>18</ele>
        <time>2018-06-23T15:29:54Z</time>
      </trkpt>
      <trkpt lat="47.30971" lon="-1.33252">
        <ele>18</ele>
        <time>2018-06-23T15:29:58Z</time>
      </trkpt>
      <trkpt lat="47.30956" lon="-1.33274">
        <ele>18</ele>
        <time>2018-06-23T15:30:04Z</time>
      </trkpt>
      <trkpt lat="47.30933" lon="-1.33302">
        <ele>17</ele>
        <time>2018-06-23T15:30:12Z</time>
      </trkpt>
      <trkpt lat="47.30917" lon="-1.33324">
        <ele>17</ele>
        <time>2018-06-23T15:30:18Z</time>
      </trkpt>
      <trkpt lat="47.30892" lon="-1.33358">
        <ele>17</ele>
        <time>2018-06-23T15:30:27Z</time>
      </trkpt>
      <trkpt lat="47.30864" lon="-1.33397">
        <ele>17</ele>
        <time>2018-06-23T15:30:37Z</time>
      </trkpt>
      <trkpt lat="47.30838" lon="-1.33431">
        <ele>17</ele>
        <time>2018-06-23T15:30:46Z</time>
      </trkpt>
      <trkpt lat="47.30815" lon="-1.33469">
        <ele>17</ele>
        <time>2018-06-23T15:30:55Z</time>
      </trkpt>
      <trkpt lat="47.30792" lon="-1.33514">
        <ele>17</ele>
        <time>2018-06-23T15:31:05Z</time>
      </trkpt>
      <trkpt lat="47.30774" lon="-1.33548">
        <ele>17</ele>
        <time>2018-06-23T15:31:13Z</time>
      </trkpt>
      <trkpt lat="47.30757" lon="-1.3359">
        <ele>17</ele>
        <time>2018-06-23T15:31:22Z</time>
      </trkpt>
      <trkpt lat="47.30741" lon="-1.3362">
        <ele>17</ele>
        <time>2018-06-23T15:31:28Z</time>
      </trkpt>
      <trkpt lat="47.30735" lon="-1.33628">
        <ele>17</ele>
        <time>2018-06-23T15:31:30Z</time>
      </trkpt>
      <trkpt lat="47.30727" lon="-1.33639">
        <ele>17</ele>
        <time>2018-06-23T15:31:33Z</time>
      </trkpt>
      <trkpt lat="47.3072" lon="-1.33661">
        <ele>17</ele>
        <time>2018-06-23T15:31:39Z</time>
      </trkpt>
      <trkpt lat="47.30713" lon="-1.33681">
        <ele>17</ele>
        <time>2018-06-23T15:31:46Z</time>
      </trkpt>
      <trkpt lat="47.30705" lon="-1.33698">
        <ele>16</ele>
        <time>2018-06-23T15:31:52Z</time>
      </trkpt>
      <trkpt lat="47.30686" lon="-1.33727">
        <ele>16</ele>
        <time>2018-06-23T15:32:00Z</time>
      </trkpt>
      <trkpt lat="47.30661" lon="-1.33748">
        <ele>17</ele>
        <time>2018-06-23T15:32:08Z</time>
      </trkpt>
      <trkpt lat="47.30631" lon="-1.33764">
        <ele>17</ele>
        <time>2018-06-23T15:32:17Z</time>
      </trkpt>
      <trkpt lat="47.30595" lon="-1.33775">
        <ele>18</ele>
        <time>2018-06-23T15:32:27Z</time>
      </trkpt>
      <trkpt lat="47.30564" lon="-1.33788">
        <ele>17</ele>
        <time>2018-06-23T15:32:35Z</time>
      </trkpt>
      <trkpt lat="47.3054" lon="-1.33803">
        <ele>17</ele>
        <time>2018-06-23T15:32:42Z</time>
      </trkpt>
      <trkpt lat="47.30498" lon="-1.33831">
        <ele>17</ele>
        <time>2018-06-23T15:32:54Z</time>
      </trkpt>
      <trkpt lat="47.30468" lon="-1.33856">
        <ele>17</ele>
        <time>2018-06-23T15:33:02Z</time>
      </trkpt>
      <trkpt lat="47.30446" lon="-1.33878">
        <ele>17</ele>
        <time>2018-06-23T15:33:09Z</time>
      </trkpt>
      <trkpt lat="47.30421" lon="-1.33906">
        <ele>18</ele>
        <time>2018-06-23T15:33:17Z</time>
      </trkpt>
      <trkpt lat="47.30402" lon="-1.33934">
        <ele>18</ele>
        <time>2018-06-23T15:33:24Z</time>
      </trkpt>
      <trkpt lat="47.30381" lon="-1.3396">
        <ele>17</ele>
        <time>2018-06-23T15:33:32Z</time>
      </trkpt>
      <trkpt lat="47.3037" lon="-1.33961">
        <ele>17</ele>
        <time>2018-06-23T15:34:59Z</time>
      </trkpt>
      <trkpt lat="47.30364" lon="-1.33955">
        <ele>17</ele>
        <time>2018-06-23T15:35:03Z</time>
      </trkpt>
      <trkpt lat="47.30355" lon="-1.3394">
        <ele>17</ele>
        <time>2018-06-23T15:35:08Z</time>
      </trkpt>
      <trkpt lat="47.30351" lon="-1.33909">
        <ele>17</ele>
        <time>2018-06-23T15:35:14Z</time>
      </trkpt>
      <trkpt lat="47.30359" lon="-1.33866">
        <ele>17</ele>
        <time>2018-06-23T15:35:22Z</time>
      </trkpt>
      <trkpt lat="47.30367" lon="-1.33816">
        <ele>17</ele>
        <time>2018-06-23T15:35:31Z</time>
      </trkpt>
      <trkpt lat="47.30371" lon="-1.33765">
        <ele>17</ele>
        <time>2018-06-23T15:35:40Z</time>
      </trkpt>
      <trkpt lat="47.30378" lon="-1.33714">
        <ele>18</ele>
        <time>2018-06-23T15:35:49Z</time>
      </trkpt>
      <trkpt lat="47.30386" lon="-1.33669">
        <ele>18</ele>
        <time>2018-06-23T15:35:57Z</time>
      </trkpt>
      <trkpt lat="47.30386" lon="-1.33662">
        <ele>18</ele>
        <time>2018-06-23T15:35:58Z</time>
      </trkpt>
      <trkpt lat="47.30382" lon="-1.33644">
        <ele>18</ele>
        <time>2018-06-23T15:36:01Z</time>
      </trkpt>
      <trkpt lat="47.30383" lon="-1.33622">
        <ele>18</ele>
        <time>2018-06-23T15:36:05Z</time>
      </trkpt>
      <trkpt lat="47.30392" lon="-1.33588">
        <ele>18</ele>
        <time>2018-06-23T15:36:11Z</time>
      </trkpt>
      <trkpt lat="47.3039" lon="-1.33561">
        <ele>18</ele>
        <time>2018-06-23T15:36:16Z</time>
      </trkpt>
      <trkpt lat="47.30385" lon="-1.33526">
        <ele>18</ele>
        <time>2018-06-23T15:36:23Z</time>
      </trkpt>
      <trkpt lat="47.30384" lon="-1.33502">
        <ele>17</ele>
        <time>2018-06-23T15:36:28Z</time>
      </trkpt>
      <trkpt lat="47.30381" lon="-1.33471">
        <ele>17</ele>
        <time>2018-06-23T15:36:34Z</time>
      </trkpt>
      <trkpt lat="47.30372" lon="-1.33436">
        <ele>17</ele>
        <time>2018-06-23T15:36:41Z</time>
      </trkpt>
      <trkpt lat="47.3036" lon="-1.33385">
        <ele>17</ele>
        <time>2018-06-23T15:36:49Z</time>
      </trkpt>
      <trkpt lat="47.30365" lon="-1.33345">
        <ele>17</ele>
        <time>2018-06-23T15:36:55Z</time>
      </trkpt>
      <trkpt lat="47.30377" lon="-1.33316">
        <ele>16</ele>
        <time>2018-06-23T15:37:01Z</time>
      </trkpt>
      <trkpt lat="47.30383" lon="-1.33302">
        <ele>16</ele>
        <time>2018-06-23T15:37:04Z</time>
      </trkpt>
      <trkpt lat="47.30389" lon="-1.33287">
        <ele>16</ele>
        <time>2018-06-23T15:37:07Z</time>
      </trkpt>
      <trkpt lat="47.30399" lon="-1.33252">
        <ele>16</ele>
        <time>2018-06-23T15:37:14Z</time>
      </trkpt>
      <trkpt lat="47.30412" lon="-1.33219">
        <ele>16</ele>
        <time>2018-06-23T15:37:21Z</time>
      </trkpt>
      <trkpt lat="47.30429" lon="-1.33188">
        <ele>16</ele>
        <time>2018-06-23T15:37:28Z</time>
      </trkpt>
      <trkpt lat="47.30443" lon="-1.33163">
        <ele>16</ele>
        <time>2018-06-23T15:37:34Z</time>
      </trkpt>
      <trkpt lat="47.30463" lon="-1.33149">
        <ele>16</ele>
        <time>2018-06-23T15:37:41Z</time>
      </trkpt>
      <trkpt lat="47.3048" lon="-1.33134">
        <ele>17</ele>
        <time>2018-06-23T15:37:48Z</time>
      </trkpt>
      <trkpt lat="47.30497" lon="-1.33115">
        <ele>17</ele>
        <time>2018-06-23T15:37:55Z</time>
      </trkpt>
      <trkpt lat="47.30507" lon="-1.33106">
        <ele>17</ele>
        <time>2018-06-23T15:37:59Z</time>
      </trkpt>
      <trkpt lat="47.3051" lon="-1.33101">
        <ele>17</ele>
        <time>2018-06-23T15:38:01Z</time>
      </trkpt>
      <trkpt lat="47.30523" lon="-1.33086">
        <ele>18</ele>
        <time>2018-06-23T15:38:08Z</time>
      </trkpt>
      <trkpt lat="47.30525" lon="-1.33083">
        <ele>18</ele>
        <time>2018-06-23T15:38:09Z</time>
      </trkpt>
      <trkpt lat="47.30525" lon="-1.33079">
        <ele>19</ele>
        <time>2018-06-23T15:38:10Z</time>
      </trkpt>
      <trkpt lat="47.30523" lon="-1.33072">
        <ele>19</ele>
        <time>2018-06-23T15:38:12Z</time>
      </trkpt>
      <trkpt lat="47.30516" lon="-1.33061">
        <ele>19</ele>
        <time>2018-06-23T15:38:16Z</time>
      </trkpt>
      <trkpt lat="47.30512" lon="-1.33055">
        <ele>19</ele>
        <time>2018-06-23T15:38:18Z</time>
      </trkpt>
      <trkpt lat="47.3051" lon="-1.33053">
        <ele>20</ele>
        <time>2018-06-23T15:38:19Z</time>
      </trkpt>
      <trkpt lat="47.30505" lon="-1.33032">
        <ele>20</ele>
        <time>2018-06-23T15:38:24Z</time>
      </trkpt>
      <trkpt lat="47.30506" lon="-1.33021">
        <ele>21</ele>
        <time>2018-06-23T15:38:27Z</time>
      </trkpt>
      <trkpt lat="47.30504" lon="-1.33017">
        <ele>21</ele>
        <time>2018-06-23T15:38:28Z</time>
      </trkpt>
      <trkpt lat="47.30498" lon="-1.33008">
        <ele>22</ele>
        <time>2018-06-23T15:38:31Z</time>
      </trkpt>
      <trkpt lat="47.30489" lon="-1.32998">
        <ele>23</ele>
        <time>2018-06-23T15:38:34Z</time>
      </trkpt>
      <trkpt lat="47.3048" lon="-1.32981">
        <ele>24</ele>
        <time>2018-06-23T15:38:40Z</time>
      </trkpt>
      <trkpt lat="47.30478" lon="-1.32979">
        <ele>24</ele>
        <time>2018-06-23T15:40:01Z</time>
      </trkpt>
      <trkpt lat="47.30476" lon="-1.32977">
        <ele>24</ele>
        <time>2018-06-23T15:40:02Z</time>
      </trkpt>
      <trkpt lat="47.30463" lon="-1.3297">
        <ele>24</ele>
        <time>2018-06-23T15:40:06Z</time>
      </trkpt>
      <trkpt lat="47.30445" lon="-1.32955">
        <ele>23</ele>
        <time>2018-06-23T15:40:11Z</time>
      </trkpt>
      <trkpt lat="47.30441" lon="-1.32952">
        <ele>23</ele>
        <time>2018-06-23T15:40:12Z</time>
      </trkpt>
      <trkpt lat="47.3043" lon="-1.32946">
        <ele>22</ele>
        <time>2018-06-23T15:40:15Z</time>
      </trkpt>
      <trkpt lat="47.30427" lon="-1.32945">
        <ele>22</ele>
        <time>2018-06-23T15:40:16Z</time>
      </trkpt>
      <trkpt lat="47.30431" lon="-1.32946">
        <ele>22</ele>
        <time>2018-06-23T15:40:41Z</time>
      </trkpt>
      <trkpt lat="47.30444" lon="-1.32949">
        <ele>22</ele>
        <time>2018-06-23T15:40:48Z</time>
      </trkpt>
      <trkpt lat="47.3044" lon="-1.32932">
        <ele>23</ele>
        <time>2018-06-23T15:41:01Z</time>
      </trkpt>
      <trkpt lat="47.30438" lon="-1.32931">
        <ele>23</ele>
        <time>2018-06-23T15:41:02Z</time>
      </trkpt>
      <trkpt lat="47.30426" lon="-1.32915">
        <ele>24</ele>
        <time>2018-06-23T15:41:08Z</time>
      </trkpt>
      <trkpt lat="47.30414" lon="-1.32912">
        <ele>23</ele>
        <time>2018-06-23T15:41:12Z</time>
      </trkpt>
      <trkpt lat="47.30403" lon="-1.32905">
        <ele>22</ele>
        <time>2018-06-23T15:41:16Z</time>
      </trkpt>
      <trkpt lat="47.30401" lon="-1.32901">
        <ele>22</ele>
        <time>2018-06-23T15:41:17Z</time>
      </trkpt>
      <trkpt lat="47.30399" lon="-1.32896">
        <ele>21</ele>
        <time>2018-06-23T15:41:18Z</time>
      </trkpt>
      <trkpt lat="47.30392" lon="-1.32877">
        <ele>20</ele>
        <time>2018-06-23T15:41:21Z</time>
      </trkpt>
      <trkpt lat="47.30378" lon="-1.32836">
        <ele>19</ele>
        <time>2018-06-23T15:41:28Z</time>
      </trkpt>
      <trkpt lat="47.30376" lon="-1.32825">
        <ele>19</ele>
        <time>2018-06-23T15:41:30Z</time>
      </trkpt>
      <trkpt lat="47.30369" lon="-1.32815">
        <ele>19</ele>
        <time>2018-06-23T15:41:33Z</time>
      </trkpt>
      <trkpt lat="47.30361" lon="-1.32805">
        <ele>18</ele>
        <time>2018-06-23T15:41:37Z</time>
      </trkpt>
      <trkpt lat="47.30361" lon="-1.32798">
        <ele>18</ele>
        <time>2018-06-23T15:41:38Z</time>
      </trkpt>
      <trkpt lat="47.3036" lon="-1.32792">
        <ele>17</ele>
        <time>2018-06-23T15:41:39Z</time>
      </trkpt>
      <trkpt lat="47.30358" lon="-1.32779">
        <ele>17</ele>
        <time>2018-06-23T15:41:41Z</time>
      </trkpt>
      <trkpt lat="47.30357" lon="-1.32773">
        <ele>16</ele>
        <time>2018-06-23T15:41:42Z</time>
      </trkpt>
      <trkpt lat="47.30354" lon="-1.32741">
        <ele>16</ele>
        <time>2018-06-23T15:41:47Z</time>
      </trkpt>
      <trkpt lat="47.30351" lon="-1.32695">
        <ele>16</ele>
        <time>2018-06-23T15:41:54Z</time>
      </trkpt>
      <trkpt lat="47.30348" lon="-1.32662">
        <ele>16</ele>
        <time>2018-06-23T15:42:00Z</time>
      </trkpt>
      <trkpt lat="47.30347" lon="-1.32623">
        <ele>16</ele>
        <time>2018-06-23T15:42:07Z</time>
      </trkpt>
      <trkpt lat="47.30348" lon="-1.32604">
        <ele>15</ele>
        <time>2018-06-23T15:42:13Z</time>
      </trkpt>
      <trkpt lat="47.30348" lon="-1.32595">
        <ele>15</ele>
        <time>2018-06-23T15:42:16Z</time>
      </trkpt>
      <trkpt lat="47.30349" lon="-1.32576">
        <ele>16</ele>
        <time>2018-06-23T15:42:24Z</time>
      </trkpt>
      <trkpt lat="47.30347" lon="-1.32552">
        <ele>15</ele>
        <time>2018-06-23T15:42:29Z</time>
      </trkpt>
      <trkpt lat="47.30346" lon="-1.32528">
        <ele>15</ele>
        <time>2018-06-23T15:42:35Z</time>
      </trkpt>
      <trkpt lat="47.30346" lon="-1.32503">
        <ele>16</ele>
        <time>2018-06-23T15:42:42Z</time>
      </trkpt>
      <trkpt lat="47.30345" lon="-1.32499">
        <ele>16</ele>
        <time>2018-06-23T15:42:43Z</time>
      </trkpt>
      <trkpt lat="47.30343" lon="-1.32478">
        <ele>16</ele>
        <time>2018-06-23T15:42:49Z</time>
      </trkpt>
      <trkpt lat="47.30339" lon="-1.32452">
        <ele>16</ele>
        <time>2018-06-23T15:42:56Z</time>
      </trkpt>
      <trkpt lat="47.30332" lon="-1.32424">
        <ele>16</ele>
        <time>2018-06-23T15:43:04Z</time>
      </trkpt>
      <trkpt lat="47.30329" lon="-1.32402">
        <ele>16</ele>
        <time>2018-06-23T15:43:10Z</time>
      </trkpt>
      <trkpt lat="47.30326" lon="-1.32385">
        <ele>17</ele>
        <time>2018-06-23T15:43:15Z</time>
      </trkpt>
      <trkpt lat="47.30324" lon="-1.32382">
        <ele>17</ele>
        <time>2018-06-23T15:43:16Z</time>
      </trkpt>
      <trkpt lat="47.30322" lon="-1.3238">
        <ele>18</ele>
        <time>2018-06-23T15:43:17Z</time>
      </trkpt>
      <trkpt lat="47.30318" lon="-1.32362">
        <ele>17</ele>
        <time>2018-06-23T15:43:22Z</time>
      </trkpt>
      <trkpt lat="47.30319" lon="-1.32353">
        <ele>17</ele>
        <time>2018-06-23T15:43:27Z</time>
      </trkpt>
      <trkpt lat="47.30327" lon="-1.32349">
        <ele>18</ele>
        <time>2018-06-23T15:43:33Z</time>
      </trkpt>
      <trkpt lat="47.30329" lon="-1.32346">
        <ele>19</ele>
        <time>2018-06-23T15:43:35Z</time>
      </trkpt>
      <trkpt lat="47.30331" lon="-1.32343">
        <ele>19</ele>
        <time>2018-06-23T15:43:36Z</time>
      </trkpt>
      <trkpt lat="47.30338" lon="-1.32336">
        <ele>18</ele>
        <time>2018-06-23T15:44:03Z</time>
      </trkpt>
      <trkpt lat="47.3034" lon="-1.32332">
        <ele>18</ele>
        <time>2018-06-23T15:44:05Z</time>
      </trkpt>
      <trkpt lat="47.30354" lon="-1.32322">
        <ele>18</ele>
        <time>2018-06-23T15:44:11Z</time>
      </trkpt>
      <trkpt lat="47.30363" lon="-1.32316">
        <ele>17</ele>
        <time>2018-06-23T15:44:15Z</time>
      </trkpt>
      <trkpt lat="47.30369" lon="-1.32312">
        <ele>17</ele>
        <time>2018-06-23T15:44:17Z</time>
      </trkpt>
      <trkpt lat="47.30392" lon="-1.32298">
        <ele>16</ele>
        <time>2018-06-23T15:44:25Z</time>
      </trkpt>
      <trkpt lat="47.30411" lon="-1.32293">
        <ele>18</ele>
        <time>2018-06-23T15:44:32Z</time>
      </trkpt>
      <trkpt lat="47.30425" lon="-1.32291">
        <ele>18</ele>
        <time>2018-06-23T15:44:37Z</time>
      </trkpt>
      <trkpt lat="47.30432" lon="-1.32291">
        <ele>19</ele>
        <time>2018-06-23T15:44:40Z</time>
      </trkpt>
      <trkpt lat="47.30451" lon="-1.32286">
        <ele>19</ele>
        <time>2018-06-23T15:44:47Z</time>
      </trkpt>
      <trkpt lat="47.30472" lon="-1.32277">
        <ele>18</ele>
        <time>2018-06-23T15:44:55Z</time>
      </trkpt>
      <trkpt lat="47.30487" lon="-1.32271">
        <ele>17</ele>
        <time>2018-06-23T15:45:02Z</time>
      </trkpt>
      <trkpt lat="47.30489" lon="-1.3227">
        <ele>17</ele>
        <time>2018-06-23T15:45:03Z</time>
      </trkpt>
      <trkpt lat="47.30503" lon="-1.32261">
        <ele>18</ele>
        <time>2018-06-23T15:45:10Z</time>
      </trkpt>
      <trkpt lat="47.30517" lon="-1.3225">
        <ele>17</ele>
        <time>2018-06-23T15:45:16Z</time>
      </trkpt>
      <trkpt lat="47.30531" lon="-1.32237">
        <ele>17</ele>
        <time>2018-06-23T15:45:22Z</time>
      </trkpt>
      <trkpt lat="47.30547" lon="-1.32233">
        <ele>18</ele>
        <time>2018-06-23T15:45:29Z</time>
      </trkpt>
      <trkpt lat="47.30564" lon="-1.32221">
        <ele>18</ele>
        <time>2018-06-23T15:45:35Z</time>
      </trkpt>
      <trkpt lat="47.30579" lon="-1.32206">
        <ele>17</ele>
        <time>2018-06-23T15:45:41Z</time>
      </trkpt>
      <trkpt lat="47.30592" lon="-1.32195">
        <ele>17</ele>
        <time>2018-06-23T15:45:48Z</time>
      </trkpt>
      <trkpt lat="47.30604" lon="-1.32184">
        <ele>18</ele>
        <time>2018-06-23T15:45:56Z</time>
      </trkpt>
      <trkpt lat="47.30619" lon="-1.32172">
        <ele>18</ele>
        <time>2018-06-23T15:46:04Z</time>
      </trkpt>
      <trkpt lat="47.30625" lon="-1.32167">
        <ele>18</ele>
        <time>2018-06-23T15:46:08Z</time>
      </trkpt>
      <trkpt lat="47.30629" lon="-1.32164">
        <ele>19</ele>
        <time>2018-06-23T15:46:11Z</time>
      </trkpt>
      <trkpt lat="47.30635" lon="-1.32158">
        <ele>20</ele>
        <time>2018-06-23T15:46:16Z</time>
      </trkpt>
      <trkpt lat="47.3064" lon="-1.32156">
        <ele>20</ele>
        <time>2018-06-23T15:46:19Z</time>
      </trkpt>
      <trkpt lat="47.30644" lon="-1.32156">
        <ele>20</ele>
        <time>2018-06-23T15:46:22Z</time>
      </trkpt>
      <trkpt lat="47.3065" lon="-1.3216">
        <ele>20</ele>
        <time>2018-06-23T15:46:26Z</time>
      </trkpt>
      <trkpt lat="47.30657" lon="-1.32167">
        <ele>21</ele>
        <time>2018-06-23T15:46:31Z</time>
      </trkpt>
      <trkpt lat="47.30659" lon="-1.3217">
        <ele>21</ele>
        <time>2018-06-23T15:46:33Z</time>
      </trkpt>
      <trkpt lat="47.30673" lon="-1.32184">
        <ele>21</ele>
        <time>2018-06-23T15:46:41Z</time>
      </trkpt>
      <trkpt lat="47.30678" lon="-1.32188">
        <ele>22</ele>
        <time>2018-06-23T15:46:44Z</time>
      </trkpt>
      <trkpt lat="47.30686" lon="-1.32193">
        <ele>22</ele>
        <time>2018-06-23T15:46:48Z</time>
      </trkpt>
      <trkpt lat="47.30698" lon="-1.32203">
        <ele>23</ele>
        <time>2018-06-23T15:46:55Z</time>
      </trkpt>
      <trkpt lat="47.30702" lon="-1.32205">
        <ele>23</ele>
        <time>2018-06-23T15:46:57Z</time>
      </trkpt>
      <trkpt lat="47.30714" lon="-1.32213">
        <ele>24</ele>
        <time>2018-06-23T15:47:03Z</time>
      </trkpt>
      <trkpt lat="47.30716" lon="-1.32214">
        <ele>24</ele>
        <time>2018-06-23T15:47:04Z</time>
      </trkpt>
      <trkpt lat="47.30727" lon="-1.32217">
        <ele>25</ele>
        <time>2018-06-23T15:47:10Z</time>
      </trkpt>
      <trkpt lat="47.3073" lon="-1.32218">
        <ele>25</ele>
        <time>2018-06-23T15:47:12Z</time>
      </trkpt>
      <trkpt lat="47.30734" lon="-1.3222">
        <ele>26</ele>
        <time>2018-06-23T15:47:15Z</time>
      </trkpt>
      <trkpt lat="47.30742" lon="-1.32222">
        <ele>27</ele>
        <time>2018-06-23T15:47:20Z</time>
      </trkpt>
      <trkpt lat="47.30744" lon="-1.32223">
        <ele>27</ele>
        <time>2018-06-23T15:47:21Z</time>
      </trkpt>
      <trkpt lat="47.30748" lon="-1.32225">
        <ele>28</ele>
        <time>2018-06-23T15:47:24Z</time>
      </trkpt>
      <trkpt lat="47.30756" lon="-1.32227">
        <ele>29</ele>
        <time>2018-06-23T15:47:29Z</time>
      </trkpt>
      <trkpt lat="47.30758" lon="-1.32228">
        <ele>29</ele>
        <time>2018-06-23T15:47:30Z</time>
      </trkpt>
      <trkpt lat="47.30764" lon="-1.32229">
        <ele>30</ele>
        <time>2018-06-23T15:47:34Z</time>
      </trkpt>
      <trkpt lat="47.30771" lon="-1.32232">
        <ele>31</ele>
        <time>2018-06-23T15:47:39Z</time>
      </trkpt>
      <trkpt lat="47.30773" lon="-1.32233">
        <ele>32</ele>
        <time>2018-06-23T15:47:40Z</time>
      </trkpt>
      <trkpt lat="47.30778" lon="-1.32236">
        <ele>33</ele>
        <time>2018-06-23T15:47:44Z</time>
      </trkpt>
      <trkpt lat="47.30784" lon="-1.32239">
        <ele>34</ele>
        <time>2018-06-23T15:47:48Z</time>
      </trkpt>
      <trkpt lat="47.30785" lon="-1.32239">
        <ele>34</ele>
        <time>2018-06-23T15:47:49Z</time>
      </trkpt>
      <trkpt lat="47.30788" lon="-1.32243">
        <ele>35</ele>
        <time>2018-06-23T15:47:52Z</time>
      </trkpt>
      <trkpt lat="47.30793" lon="-1.32247">
        <ele>36</ele>
        <time>2018-06-23T15:47:56Z</time>
      </trkpt>
      <trkpt lat="47.30794" lon="-1.32248">
        <ele>36</ele>
        <time>2018-06-23T15:47:57Z</time>
      </trkpt>
      <trkpt lat="47.30799" lon="-1.32252">
        <ele>37</ele>
        <time>2018-06-23T15:48:01Z</time>
      </trkpt>
      <trkpt lat="47.30805" lon="-1.32257">
        <ele>38</ele>
        <time>2018-06-23T15:48:06Z</time>
      </trkpt>
      <trkpt lat="47.30807" lon="-1.32258">
        <ele>39</ele>
        <time>2018-06-23T15:48:07Z</time>
      </trkpt>
      <trkpt lat="47.30811" lon="-1.32262">
        <ele>40</ele>
        <time>2018-06-23T15:48:10Z</time>
      </trkpt>
      <trkpt lat="47.30815" lon="-1.32266">
        <ele>41</ele>
        <time>2018-06-23T15:48:14Z</time>
      </trkpt>
      <trkpt lat="47.3082" lon="-1.32271">
        <ele>42</ele>
        <time>2018-06-23T15:48:18Z</time>
      </trkpt>
      <trkpt lat="47.30825" lon="-1.32277">
        <ele>43</ele>
        <time>2018-06-23T15:48:22Z</time>
      </trkpt>
      <trkpt lat="47.30832" lon="-1.32283">
        <ele>44</ele>
        <time>2018-06-23T15:48:27Z</time>
      </trkpt>
      <trkpt lat="47.30833" lon="-1.32284">
        <ele>44</ele>
        <time>2018-06-23T15:48:28Z</time>
      </trkpt>
      <trkpt lat="47.30841" lon="-1.32291">
        <ele>45</ele>
        <time>2018-06-23T15:48:33Z</time>
      </trkpt>
      <trkpt lat="47.30845" lon="-1.32295">
        <ele>46</ele>
        <time>2018-06-23T15:48:36Z</time>
      </trkpt>
      <trkpt lat="47.30848" lon="-1.32298">
        <ele>46</ele>
        <time>2018-06-23T15:48:38Z</time>
      </trkpt>
      <trkpt lat="47.30855" lon="-1.32304">
        <ele>47</ele>
        <time>2018-06-23T15:48:42Z</time>
      </trkpt>
      <trkpt lat="47.3087" lon="-1.32316">
        <ele>47</ele>
        <time>2018-06-23T15:48:49Z</time>
      </trkpt>
      <trkpt lat="47.30872" lon="-1.32317">
        <ele>48</ele>
        <time>2018-06-23T15:48:50Z</time>
      </trkpt>
      <trkpt lat="47.30883" lon="-1.32328">
        <ele>49</ele>
        <time>2018-06-23T15:48:56Z</time>
      </trkpt>
      <trkpt lat="47.30884" lon="-1.32328">
        <ele>49</ele>
        <time>2018-06-23T15:48:57Z</time>
      </trkpt>
      <trkpt lat="47.30887" lon="-1.3232">
        <ele>50</ele>
        <time>2018-06-23T15:51:41Z</time>
      </trkpt>
      <trkpt lat="47.30887" lon="-1.32318">
        <ele>50</ele>
        <time>2018-06-23T15:51:42Z</time>
      </trkpt>
      <trkpt lat="47.30892" lon="-1.32293">
        <ele>51</ele>
        <time>2018-06-23T15:51:50Z</time>
      </trkpt>
      <trkpt lat="47.30895" lon="-1.32283">
        <ele>52</ele>
        <time>2018-06-23T15:51:53Z</time>
      </trkpt>
      <trkpt lat="47.30901" lon="-1.32263">
        <ele>52</ele>
        <time>2018-06-23T15:51:59Z</time>
      </trkpt>
      <trkpt lat="47.30902" lon="-1.32259">
        <ele>53</ele>
        <time>2018-06-23T15:52:00Z</time>
      </trkpt>
      <trkpt lat="47.30907" lon="-1.32232">
        <ele>54</ele>
        <time>2018-06-23T15:52:08Z</time>
      </trkpt>
      <trkpt lat="47.30907" lon="-1.32229">
        <ele>54</ele>
        <time>2018-06-23T15:52:09Z</time>
      </trkpt>
      <trkpt lat="47.30901" lon="-1.32213">
        <ele>55</ele>
        <time>2018-06-23T15:52:14Z</time>
      </trkpt>
      <trkpt lat="47.30894" lon="-1.32202">
        <ele>56</ele>
        <time>2018-06-23T15:52:20Z</time>
      </trkpt>
      <trkpt lat="47.3089" lon="-1.3219">
        <ele>57</ele>
        <time>2018-06-23T15:52:24Z</time>
      </trkpt>
      <trkpt lat="47.30888" lon="-1.32183">
        <ele>58</ele>
        <time>2018-06-23T15:52:27Z</time>
      </trkpt>
      <trkpt lat="47.30887" lon="-1.32177">
        <ele>58</ele>
        <time>2018-06-23T15:52:29Z</time>
      </trkpt>
      <trkpt lat="47.30886" lon="-1.32162">
        <ele>60</ele>
        <time>2018-06-23T15:52:34Z</time>
      </trkpt>
      <trkpt lat="47.30888" lon="-1.32152">
        <ele>61</ele>
        <time>2018-06-23T15:52:38Z</time>
      </trkpt>
      <trkpt lat="47.3089" lon="-1.32147">
        <ele>61</ele>
        <time>2018-06-23T15:52:40Z</time>
      </trkpt>
      <trkpt lat="47.30894" lon="-1.32138">
        <ele>62</ele>
        <time>2018-06-23T15:52:43Z</time>
      </trkpt>
      <trkpt lat="47.30901" lon="-1.32122">
        <ele>63</ele>
        <time>2018-06-23T15:52:49Z</time>
      </trkpt>
      <trkpt lat="47.30902" lon="-1.32119">
        <ele>63</ele>
        <time>2018-06-23T15:52:50Z</time>
      </trkpt>
      <trkpt lat="47.30909" lon="-1.32106">
        <ele>64</ele>
        <time>2018-06-23T15:52:55Z</time>
      </trkpt>
      <trkpt lat="47.30915" lon="-1.32093">
        <ele>65</ele>
        <time>2018-06-23T15:53:00Z</time>
      </trkpt>
      <trkpt lat="47.30916" lon="-1.32091">
        <ele>65</ele>
        <time>2018-06-23T15:53:01Z</time>
      </trkpt>
      <trkpt lat="47.30925" lon="-1.32076">
        <ele>66</ele>
        <time>2018-06-23T15:53:07Z</time>
      </trkpt>
      <trkpt lat="47.30926" lon="-1.32073">
        <ele>66</ele>
        <time>2018-06-23T15:53:08Z</time>
      </trkpt>
      <trkpt lat="47.30934" lon="-1.32058">
        <ele>67</ele>
        <time>2018-06-23T15:53:14Z</time>
      </trkpt>
      <trkpt lat="47.30937" lon="-1.32054">
        <ele>67</ele>
        <time>2018-06-23T15:53:16Z</time>
      </trkpt>
      <trkpt lat="47.30938" lon="-1.32052">
        <ele>67</ele>
        <time>2018-06-23T15:53:17Z</time>
      </trkpt>
      <trkpt lat="47.30945" lon="-1.32045">
        <ele>68</ele>
        <time>2018-06-23T15:53:21Z</time>
      </trkpt>
      <trkpt lat="47.30953" lon="-1.3204">
        <ele>69</ele>
        <time>2018-06-23T15:53:25Z</time>
      </trkpt>
      <trkpt lat="47.30965" lon="-1.32032">
        <ele>70</ele>
        <time>2018-06-23T15:53:30Z</time>
      </trkpt>
      <trkpt lat="47.30968" lon="-1.32028">
        <ele>70</ele>
        <time>2018-06-23T15:53:32Z</time>
      </trkpt>
      <trkpt lat="47.30978" lon="-1.32013">
        <ele>71</ele>
        <time>2018-06-23T15:53:38Z</time>
      </trkpt>
      <trkpt lat="47.30985" lon="-1.32002">
        <ele>72</ele>
        <time>2018-06-23T15:53:42Z</time>
      </trkpt>
      <trkpt lat="47.30993" lon="-1.3199">
        <ele>73</ele>
        <time>2018-06-23T15:53:47Z</time>
      </trkpt>
      <trkpt lat="47.3101" lon="-1.31972">
        <ele>73</ele>
        <time>2018-06-23T15:53:56Z</time>
      </trkpt>
      <trkpt lat="47.31016" lon="-1.31967">
        <ele>74</ele>
        <time>2018-06-23T15:53:59Z</time>
      </trkpt>
      <trkpt lat="47.31028" lon="-1.31958">
        <ele>74</ele>
        <time>2018-06-23T15:54:04Z</time>
      </trkpt>
      <trkpt lat="47.31051" lon="-1.31947">
        <ele>75</ele>
        <time>2018-06-23T15:54:13Z</time>
      </trkpt>
      <trkpt lat="47.31054" lon="-1.31945">
        <ele>75</ele>
        <time>2018-06-23T15:54:14Z</time>
      </trkpt>
      <trkpt lat="47.31065" lon="-1.31931">
        <ele>75</ele>
        <time>2018-06-23T15:54:20Z</time>
      </trkpt>
      <trkpt lat="47.31074" lon="-1.31921">
        <ele>76</ele>
        <time>2018-06-23T15:54:24Z</time>
      </trkpt>
      <trkpt lat="47.31084" lon="-1.31907">
        <ele>76</ele>
        <time>2018-06-23T15:54:29Z</time>
      </trkpt>
      <trkpt lat="47.31101" lon="-1.31875">
        <ele>77</ele>
        <time>2018-06-23T15:54:39Z</time>
      </trkpt>
      <trkpt lat="47.31115" lon="-1.31847">
        <ele>77</ele>
        <time>2018-06-23T15:54:48Z</time>
      </trkpt>
      <trkpt lat="47.31119" lon="-1.31839">
        <ele>76</ele>
        <time>2018-06-23T15:57:19Z</time>
      </trkpt>
      <trkpt lat="47.31127" lon="-1.31821">
        <ele>76</ele>
        <time>2018-06-23T15:57:24Z</time>
      </trkpt>
      <trkpt lat="47.31146" lon="-1.31794">
        <ele>76</ele>
        <time>2018-06-23T15:57:31Z</time>
      </trkpt>
      <trkpt lat="47.31157" lon="-1.31781">
        <ele>76</ele>
        <time>2018-06-23T15:57:34Z</time>
      </trkpt>
      <trkpt lat="47.31174" lon="-1.3177">
        <ele>75</ele>
        <time>2018-06-23T15:57:38Z</time>
      </trkpt>
      <trkpt lat="47.31183" lon="-1.31765">
        <ele>75</ele>
        <time>2018-06-23T15:57:40Z</time>
      </trkpt>
      <trkpt lat="47.31196" lon="-1.31751">
        <ele>73</ele>
        <time>2018-06-23T15:57:45Z</time>
      </trkpt>
      <trkpt lat="47.31195" lon="-1.31747">
        <ele>73</ele>
        <time>2018-06-23T15:57:46Z</time>
      </trkpt>
      <trkpt lat="47.3119" lon="-1.31738">
        <ele>73</ele>
        <time>2018-06-23T15:57:48Z</time>
      </trkpt>
      <trkpt lat="47.31171" lon="-1.31693">
        <ele>72</ele>
        <time>2018-06-23T15:57:57Z</time>
      </trkpt>
      <trkpt lat="47.31169" lon="-1.31687">
        <ele>72</ele>
        <time>2018-06-23T15:57:58Z</time>
      </trkpt>
      <trkpt lat="47.31151" lon="-1.31641">
        <ele>72</ele>
        <time>2018-06-23T15:58:06Z</time>
      </trkpt>
      <trkpt lat="47.31133" lon="-1.31596">
        <ele>72</ele>
        <time>2018-06-23T15:58:14Z</time>
      </trkpt>
      <trkpt lat="47.31114" lon="-1.3155">
        <ele>71</ele>
        <time>2018-06-23T15:58:22Z</time>
      </trkpt>
      <trkpt lat="47.31087" lon="-1.31484">
        <ele>70</ele>
        <time>2018-06-23T15:58:33Z</time>
      </trkpt>
      <trkpt lat="47.31065" lon="-1.31431">
        <ele>71</ele>
        <time>2018-06-23T15:58:42Z</time>
      </trkpt>
      <trkpt lat="47.31047" lon="-1.31396">
        <ele>70</ele>
        <time>2018-06-23T15:58:49Z</time>
      </trkpt>
      <trkpt lat="47.31028" lon="-1.31374">
        <ele>70</ele>
        <time>2018-06-23T15:58:56Z</time>
      </trkpt>
      <trkpt lat="47.31001" lon="-1.31351">
        <ele>70</ele>
        <time>2018-06-23T15:59:05Z</time>
      </trkpt>
      <trkpt lat="47.30972" lon="-1.31327">
        <ele>70</ele>
        <time>2018-06-23T15:59:12Z</time>
      </trkpt>
      <trkpt lat="47.30948" lon="-1.31305">
        <ele>69</ele>
        <time>2018-06-23T15:59:18Z</time>
      </trkpt>
      <trkpt lat="47.30945" lon="-1.31301">
        <ele>69</ele>
        <time>2018-06-23T15:59:19Z</time>
      </trkpt>
      <trkpt lat="47.30939" lon="-1.31293">
        <ele>69</ele>
        <time>2018-06-23T15:59:21Z</time>
      </trkpt>
      <trkpt lat="47.30931" lon="-1.31278">
        <ele>69</ele>
        <time>2018-06-23T15:59:24Z</time>
      </trkpt>
      <trkpt lat="47.30929" lon="-1.31266">
        <ele>69</ele>
        <time>2018-06-23T15:59:26Z</time>
      </trkpt>
      <trkpt lat="47.3093" lon="-1.31246">
        <ele>69</ele>
        <time>2018-06-23T15:59:29Z</time>
      </trkpt>
      <trkpt lat="47.3093" lon="-1.3124">
        <ele>69</ele>
        <time>2018-06-23T15:59:30Z</time>
      </trkpt>
      <trkpt lat="47.30934" lon="-1.31185">
        <ele>68</ele>
        <time>2018-06-23T15:59:38Z</time>
      </trkpt>
      <trkpt lat="47.30929" lon="-1.31131">
        <ele>68</ele>
        <time>2018-06-23T15:59:46Z</time>
      </trkpt>
      <trkpt lat="47.30919" lon="-1.31066">
        <ele>68</ele>
        <time>2018-06-23T15:59:56Z</time>
      </trkpt>
      <trkpt lat="47.30914" lon="-1.31009">
        <ele>68</ele>
        <time>2018-06-23T16:00:05Z</time>
      </trkpt>
      <trkpt lat="47.30911" lon="-1.30942">
        <ele>68</ele>
        <time>2018-06-23T16:00:16Z</time>
      </trkpt>
      <trkpt lat="47.3091" lon="-1.30879">
        <ele>67</ele>
        <time>2018-06-23T16:00:26Z</time>
      </trkpt>
      <trkpt lat="47.30918" lon="-1.30833">
        <ele>67</ele>
        <time>2018-06-23T16:00:33Z</time>
      </trkpt>
      <trkpt lat="47.3093" lon="-1.30778">
        <ele>68</ele>
        <time>2018-06-23T16:00:42Z</time>
      </trkpt>
      <trkpt lat="47.30947" lon="-1.30733">
        <ele>68</ele>
        <time>2018-06-23T16:00:50Z</time>
      </trkpt>
      <trkpt lat="47.30967" lon="-1.30673">
        <ele>68</ele>
        <time>2018-06-23T16:01:00Z</time>
      </trkpt>
      <trkpt lat="47.30979" lon="-1.30616">
        <ele>68</ele>
        <time>2018-06-23T16:01:09Z</time>
      </trkpt>
      <trkpt lat="47.30994" lon="-1.30555">
        <ele>69</ele>
        <time>2018-06-23T16:01:19Z</time>
      </trkpt>
      <trkpt lat="47.31008" lon="-1.30516">
        <ele>69</ele>
        <time>2018-06-23T16:01:26Z</time>
      </trkpt>
      <trkpt lat="47.3101" lon="-1.30511">
        <ele>69</ele>
        <time>2018-06-23T16:01:27Z</time>
      </trkpt>
      <trkpt lat="47.31026" lon="-1.30476">
        <ele>69</ele>
        <time>2018-06-23T16:01:34Z</time>
      </trkpt>
      <trkpt lat="47.31053" lon="-1.30433">
        <ele>70</ele>
        <time>2018-06-23T16:01:44Z</time>
      </trkpt>
      <trkpt lat="47.31056" lon="-1.3043">
        <ele>70</ele>
        <time>2018-06-23T16:01:45Z</time>
      </trkpt>
      <trkpt lat="47.31069" lon="-1.30417">
        <ele>71</ele>
        <time>2018-06-23T16:01:50Z</time>
      </trkpt>
      <trkpt lat="47.31088" lon="-1.30404">
        <ele>72</ele>
        <time>2018-06-23T16:01:57Z</time>
      </trkpt>
      <trkpt lat="47.31112" lon="-1.30383">
        <ele>72</ele>
        <time>2018-06-23T16:02:05Z</time>
      </trkpt>
      <trkpt lat="47.31137" lon="-1.30356">
        <ele>72</ele>
        <time>2018-06-23T16:02:14Z</time>
      </trkpt>
      <trkpt lat="47.31139" lon="-1.30353">
        <ele>72</ele>
        <time>2018-06-23T16:02:15Z</time>
      </trkpt>
      <trkpt lat="47.3116" lon="-1.30331">
        <ele>73</ele>
        <time>2018-06-23T16:02:23Z</time>
      </trkpt>
      <trkpt lat="47.31172" lon="-1.30312">
        <ele>73</ele>
        <time>2018-06-23T16:02:29Z</time>
      </trkpt>
      <trkpt lat="47.31174" lon="-1.3031">
        <ele>73</ele>
        <time>2018-06-23T16:02:30Z</time>
      </trkpt>
      <trkpt lat="47.31193" lon="-1.3028">
        <ele>74</ele>
        <time>2018-06-23T16:02:39Z</time>
      </trkpt>
      <trkpt lat="47.31212" lon="-1.30248">
        <ele>75</ele>
        <time>2018-06-23T16:02:48Z</time>
      </trkpt>
      <trkpt lat="47.31216" lon="-1.30241">
        <ele>76</ele>
        <time>2018-06-23T16:02:50Z</time>
      </trkpt>
      <trkpt lat="47.31238" lon="-1.30198">
        <ele>76</ele>
        <time>2018-06-23T16:03:01Z</time>
      </trkpt>
      <trkpt lat="47.31241" lon="-1.3019">
        <ele>76</ele>
        <time>2018-06-23T16:03:03Z</time>
      </trkpt>
      <trkpt lat="47.31254" lon="-1.30154">
        <ele>77</ele>
        <time>2018-06-23T16:03:12Z</time>
      </trkpt>
      <trkpt lat="47.31264" lon="-1.30136">
        <ele>77</ele>
        <time>2018-06-23T16:03:18Z</time>
      </trkpt>
      <trkpt lat="47.31266" lon="-1.30136">
        <ele>77</ele>
        <time>2018-06-23T16:03:19Z</time>
      </trkpt>
      <trkpt lat="47.31269" lon="-1.30138">
        <ele>77</ele>
        <time>2018-06-23T16:03:21Z</time>
      </trkpt>
      <trkpt lat="47.31272" lon="-1.30141">
        <ele>77</ele>
        <time>2018-06-23T16:05:39Z</time>
      </trkpt>
      <trkpt lat="47.31273" lon="-1.30144">
        <ele>77</ele>
        <time>2018-06-23T16:05:40Z</time>
      </trkpt>
      <trkpt lat="47.31285" lon="-1.30156">
        <ele>77</ele>
        <time>2018-06-23T16:05:45Z</time>
      </trkpt>
      <trkpt lat="47.31302" lon="-1.30164">
        <ele>77</ele>
        <time>2018-06-23T16:05:50Z</time>
      </trkpt>
      <trkpt lat="47.31322" lon="-1.30157">
        <ele>77</ele>
        <time>2018-06-23T16:05:55Z</time>
      </trkpt>
      <trkpt lat="47.3137" lon="-1.30132">
        <ele>76</ele>
        <time>2018-06-23T16:06:07Z</time>
      </trkpt>
      <trkpt lat="47.31397" lon="-1.30132">
        <ele>76</ele>
        <time>2018-06-23T16:06:13Z</time>
      </trkpt>
      <trkpt lat="47.31423" lon="-1.30148">
        <ele>76</ele>
        <time>2018-06-23T16:06:20Z</time>
      </trkpt>
      <trkpt lat="47.31453" lon="-1.30164">
        <ele>75</ele>
        <time>2018-06-23T16:06:28Z</time>
      </trkpt>
      <trkpt lat="47.31456" lon="-1.30165">
        <ele>75</ele>
        <time>2018-06-23T16:06:29Z</time>
      </trkpt>
      <trkpt lat="47.31479" lon="-1.30164">
        <ele>75</ele>
        <time>2018-06-23T16:06:35Z</time>
      </trkpt>
      <trkpt lat="47.31505" lon="-1.30162">
        <ele>75</ele>
        <time>2018-06-23T16:06:42Z</time>
      </trkpt>
      <trkpt lat="47.31523" lon="-1.3016">
        <ele>75</ele>
        <time>2018-06-23T16:06:48Z</time>
      </trkpt>
      <trkpt lat="47.31526" lon="-1.30155">
        <ele>74</ele>
        <time>2018-06-23T16:07:17Z</time>
      </trkpt>
      <trkpt lat="47.31526" lon="-1.30152">
        <ele>74</ele>
        <time>2018-06-23T16:07:18Z</time>
      </trkpt>
      <trkpt lat="47.31527" lon="-1.30139">
        <ele>74</ele>
        <time>2018-06-23T16:07:21Z</time>
      </trkpt>
      <trkpt lat="47.31528" lon="-1.30124">
        <ele>74</ele>
        <time>2018-06-23T16:07:24Z</time>
      </trkpt>
      <trkpt lat="47.31538" lon="-1.30089">
        <ele>74</ele>
        <time>2018-06-23T16:07:31Z</time>
      </trkpt>
      <trkpt lat="47.31544" lon="-1.30067">
        <ele>73</ele>
        <time>2018-06-23T16:07:35Z</time>
      </trkpt>
      <trkpt lat="47.31547" lon="-1.30053">
        <ele>73</ele>
        <time>2018-06-23T16:07:38Z</time>
      </trkpt>
      <trkpt lat="47.3155" lon="-1.30043">
        <ele>72</ele>
        <time>2018-06-23T16:07:41Z</time>
      </trkpt>
      <trkpt lat="47.31553" lon="-1.3004">
        <ele>72</ele>
        <time>2018-06-23T16:07:43Z</time>
      </trkpt>
      <trkpt lat="47.31569" lon="-1.30028">
        <ele>71</ele>
        <time>2018-06-23T16:07:49Z</time>
      </trkpt>
      <trkpt lat="47.31573" lon="-1.30025">
        <ele>71</ele>
        <time>2018-06-23T16:07:50Z</time>
      </trkpt>
      <trkpt lat="47.3159" lon="-1.30013">
        <ele>70</ele>
        <time>2018-06-23T16:07:54Z</time>
      </trkpt>
      <trkpt lat="47.31595" lon="-1.3001">
        <ele>70</ele>
        <time>2018-06-23T16:07:55Z</time>
      </trkpt>
      <trkpt lat="47.3161" lon="-1.3">
        <ele>69</ele>
        <time>2018-06-23T16:07:58Z</time>
      </trkpt>
      <trkpt lat="47.31627" lon="-1.29988">
        <ele>67</ele>
        <time>2018-06-23T16:08:01Z</time>
      </trkpt>
      <trkpt lat="47.31633" lon="-1.29983">
        <ele>67</ele>
        <time>2018-06-23T16:08:02Z</time>
      </trkpt>
      <trkpt lat="47.31649" lon="-1.2997">
        <ele>66</ele>
        <time>2018-06-23T16:08:05Z</time>
      </trkpt>
      <trkpt lat="47.31663" lon="-1.2996">
        <ele>65</ele>
        <time>2018-06-23T16:08:08Z</time>
      </trkpt>
      <trkpt lat="47.31668" lon="-1.29956">
        <ele>65</ele>
        <time>2018-06-23T16:08:09Z</time>
      </trkpt>
      <trkpt lat="47.31679" lon="-1.29946">
        <ele>64</ele>
        <time>2018-06-23T16:08:12Z</time>
      </trkpt>
      <trkpt lat="47.31685" lon="-1.29937">
        <ele>64</ele>
        <time>2018-06-23T16:08:14Z</time>
      </trkpt>
      <trkpt lat="47.31699" lon="-1.29922">
        <ele>65</ele>
        <time>2018-06-23T16:08:19Z</time>
      </trkpt>
      <trkpt lat="47.31702" lon="-1.2992">
        <ele>65</ele>
        <time>2018-06-23T16:08:20Z</time>
      </trkpt>
      <trkpt lat="47.31717" lon="-1.29908">
        <ele>65</ele>
        <time>2018-06-23T16:08:25Z</time>
      </trkpt>
      <trkpt lat="47.31724" lon="-1.29895">
        <ele>65</ele>
        <time>2018-06-23T16:09:18Z</time>
      </trkpt>
      <trkpt lat="47.31728" lon="-1.29887">
        <ele>65</ele>
        <time>2018-06-23T16:09:22Z</time>
      </trkpt>
      <trkpt lat="47.31735" lon="-1.29869">
        <ele>66</ele>
        <time>2018-06-23T16:09:29Z</time>
      </trkpt>
      <trkpt lat="47.31741" lon="-1.2985">
        <ele>66</ele>
        <time>2018-06-23T16:09:36Z</time>
      </trkpt>
      <trkpt lat="47.31746" lon="-1.29825">
        <ele>66</ele>
        <time>2018-06-23T16:09:43Z</time>
      </trkpt>
      <trkpt lat="47.31748" lon="-1.29816">
        <ele>66</ele>
        <time>2018-06-23T16:09:47Z</time>
      </trkpt>
      <trkpt lat="47.31749" lon="-1.29806">
        <ele>66</ele>
        <time>2018-06-23T16:10:25Z</time>
      </trkpt>
      <trkpt lat="47.31751" lon="-1.29795">
        <ele>66</ele>
        <time>2018-06-23T16:10:29Z</time>
      </trkpt>
      <trkpt lat="47.31754" lon="-1.2977">
        <ele>67</ele>
        <time>2018-06-23T16:10:37Z</time>
      </trkpt>
      <trkpt lat="47.31757" lon="-1.29756">
        <ele>67</ele>
        <time>2018-06-23T16:10:41Z</time>
      </trkpt>
      <trkpt lat="47.3176" lon="-1.29741">
        <ele>68</ele>
        <time>2018-06-23T16:10:45Z</time>
      </trkpt>
      <trkpt lat="47.31766" lon="-1.29713">
        <ele>68</ele>
        <time>2018-06-23T16:10:54Z</time>
      </trkpt>
      <trkpt lat="47.31771" lon="-1.29689">
        <ele>69</ele>
        <time>2018-06-23T16:11:03Z</time>
      </trkpt>
      <trkpt lat="47.31774" lon="-1.29673">
        <ele>69</ele>
        <time>2018-06-23T16:11:11Z</time>
      </trkpt>
      <trkpt lat="47.31783" lon="-1.29659">
        <ele>69</ele>
        <time>2018-06-23T16:11:19Z</time>
      </trkpt>
      <trkpt lat="47.31786" lon="-1.29653">
        <ele>69</ele>
        <time>2018-06-23T16:11:21Z</time>
      </trkpt>
      <trkpt lat="47.31785" lon="-1.29649">
        <ele>69</ele>
        <time>2018-06-23T16:11:22Z</time>
      </trkpt>
      <trkpt lat="47.31785" lon="-1.29644">
        <ele>69</ele>
        <time>2018-06-23T16:11:23Z</time>
      </trkpt>
      <trkpt lat="47.31788" lon="-1.29622">
        <ele>70</ele>
        <time>2018-06-23T16:11:28Z</time>
      </trkpt>
      <trkpt lat="47.31793" lon="-1.29606">
        <ele>70</ele>
        <time>2018-06-23T16:11:31Z</time>
      </trkpt>
      <trkpt lat="47.31796" lon="-1.29589">
        <ele>71</ele>
        <time>2018-06-23T16:11:34Z</time>
      </trkpt>
      <trkpt lat="47.31811" lon="-1.29554">
        <ele>71</ele>
        <time>2018-06-23T16:11:40Z</time>
      </trkpt>
      <trkpt lat="47.31838" lon="-1.295">
        <ele>71</ele>
        <time>2018-06-23T16:11:50Z</time>
      </trkpt>
      <trkpt lat="47.31865" lon="-1.29444">
        <ele>71</ele>
        <time>2018-06-23T16:12:01Z</time>
      </trkpt>
      <trkpt lat="47.31885" lon="-1.29396">
        <ele>71</ele>
        <time>2018-06-23T16:12:10Z</time>
      </trkpt>
      <trkpt lat="47.31896" lon="-1.29358">
        <ele>71</ele>
        <time>2018-06-23T16:12:17Z</time>
      </trkpt>
      <trkpt lat="47.31897" lon="-1.29352">
        <ele>71</ele>
        <time>2018-06-23T16:12:18Z</time>
      </trkpt>
      <trkpt lat="47.31898" lon="-1.29346">
        <ele>72</ele>
        <time>2018-06-23T16:12:19Z</time>
      </trkpt>
      <trkpt lat="47.31908" lon="-1.29283">
        <ele>72</ele>
        <time>2018-06-23T16:12:30Z</time>
      </trkpt>
      <trkpt lat="47.31917" lon="-1.29251">
        <ele>72</ele>
        <time>2018-06-23T16:12:37Z</time>
      </trkpt>
      <trkpt lat="47.31921" lon="-1.29239">
        <ele>73</ele>
        <time>2018-06-23T16:12:40Z</time>
      </trkpt>
      <trkpt lat="47.31929" lon="-1.29203">
        <ele>72</ele>
        <time>2018-06-23T16:12:48Z</time>
      </trkpt>
      <trkpt lat="47.31931" lon="-1.29166">
        <ele>73</ele>
        <time>2018-06-23T16:12:56Z</time>
      </trkpt>
      <trkpt lat="47.31931" lon="-1.29157">
        <ele>74</ele>
        <time>2018-06-23T16:12:58Z</time>
      </trkpt>
      <trkpt lat="47.31932" lon="-1.29124">
        <ele>74</ele>
        <time>2018-06-23T16:13:05Z</time>
      </trkpt>
      <trkpt lat="47.3194" lon="-1.29084">
        <ele>75</ele>
        <time>2018-06-23T16:13:14Z</time>
      </trkpt>
      <trkpt lat="47.31942" lon="-1.29076">
        <ele>75</ele>
        <time>2018-06-23T16:13:16Z</time>
      </trkpt>
      <trkpt lat="47.3195" lon="-1.29053">
        <ele>76</ele>
        <time>2018-06-23T16:13:22Z</time>
      </trkpt>
      <trkpt lat="47.31953" lon="-1.29045">
        <ele>76</ele>
        <time>2018-06-23T16:13:24Z</time>
      </trkpt>
      <trkpt lat="47.3196" lon="-1.2903">
        <ele>77</ele>
        <time>2018-06-23T16:13:28Z</time>
      </trkpt>
      <trkpt lat="47.31966" lon="-1.29015">
        <ele>77</ele>
        <time>2018-06-23T16:13:32Z</time>
      </trkpt>
      <trkpt lat="47.31969" lon="-1.29003">
        <ele>78</ele>
        <time>2018-06-23T16:13:35Z</time>
      </trkpt>
      <trkpt lat="47.31977" lon="-1.28985">
        <ele>79</ele>
        <time>2018-06-23T16:13:40Z</time>
      </trkpt>
      <trkpt lat="47.31978" lon="-1.28982">
        <ele>79</ele>
        <time>2018-06-23T16:13:41Z</time>
      </trkpt>
      <trkpt lat="47.31991" lon="-1.28965">
        <ele>80</ele>
        <time>2018-06-23T16:13:47Z</time>
      </trkpt>
      <trkpt lat="47.32004" lon="-1.28951">
        <ele>80</ele>
        <time>2018-06-23T16:13:52Z</time>
      </trkpt>
      <trkpt lat="47.32018" lon="-1.28938">
        <ele>81</ele>
        <time>2018-06-23T16:13:57Z</time>
      </trkpt>
      <trkpt lat="47.32041" lon="-1.28913">
        <ele>81</ele>
        <time>2018-06-23T16:14:06Z</time>
      </trkpt>
      <trkpt lat="47.32051" lon="-1.28897">
        <ele>83</ele>
        <time>2018-06-23T16:16:55Z</time>
      </trkpt>
      <trkpt lat="47.32058" lon="-1.28889">
        <ele>83</ele>
        <time>2018-06-23T16:16:58Z</time>
      </trkpt>
      <trkpt lat="47.32072" lon="-1.28872">
        <ele>83</ele>
        <time>2018-06-23T16:17:05Z</time>
      </trkpt>
      <trkpt lat="47.32084" lon="-1.28856">
        <ele>84</ele>
        <time>2018-06-23T16:17:13Z</time>
      </trkpt>
      <trkpt lat="47.32089" lon="-1.28851">
        <ele>84</ele>
        <time>2018-06-23T16:17:16Z</time>
      </trkpt>
      <trkpt lat="47.321" lon="-1.28837">
        <ele>85</ele>
        <time>2018-06-23T16:17:23Z</time>
      </trkpt>
      <trkpt lat="47.32113" lon="-1.28821">
        <ele>86</ele>
        <time>2018-06-23T16:17:33Z</time>
      </trkpt>
      <trkpt lat="47.32123" lon="-1.2881">
        <ele>86</ele>
        <time>2018-06-23T16:17:41Z</time>
      </trkpt>
      <trkpt lat="47.32124" lon="-1.28808">
        <ele>86</ele>
        <time>2018-06-23T16:17:42Z</time>
      </trkpt>
      <trkpt lat="47.32135" lon="-1.28793">
        <ele>87</ele>
        <time>2018-06-23T16:17:50Z</time>
      </trkpt>
      <trkpt lat="47.32151" lon="-1.28769">
        <ele>87</ele>
        <time>2018-06-23T16:18:00Z</time>
      </trkpt>
      <trkpt lat="47.32153" lon="-1.28767">
        <ele>87</ele>
        <time>2018-06-23T16:18:01Z</time>
      </trkpt>
      <trkpt lat="47.32166" lon="-1.28741">
        <ele>88</ele>
        <time>2018-06-23T16:18:10Z</time>
      </trkpt>
      <trkpt lat="47.32179" lon="-1.28715">
        <ele>89</ele>
        <time>2018-06-23T16:18:19Z</time>
      </trkpt>
      <trkpt lat="47.32186" lon="-1.287">
        <ele>89</ele>
        <time>2018-06-23T16:18:43Z</time>
      </trkpt>
      <trkpt lat="47.32191" lon="-1.28691">
        <ele>89</ele>
        <time>2018-06-23T16:18:46Z</time>
      </trkpt>
      <trkpt lat="47.32197" lon="-1.28681">
        <ele>89</ele>
        <time>2018-06-23T16:18:50Z</time>
      </trkpt>
      <trkpt lat="47.32206" lon="-1.28666">
        <ele>90</ele>
        <time>2018-06-23T16:18:56Z</time>
      </trkpt>
      <trkpt lat="47.32221" lon="-1.28653">
        <ele>90</ele>
        <time>2018-06-23T16:19:05Z</time>
      </trkpt>
      <trkpt lat="47.32239" lon="-1.28643">
        <ele>90</ele>
        <time>2018-06-23T16:19:13Z</time>
      </trkpt>
      <trkpt lat="47.32241" lon="-1.28641">
        <ele>90</ele>
        <time>2018-06-23T16:19:14Z</time>
      </trkpt>
      <trkpt lat="47.3225" lon="-1.28627">
        <ele>91</ele>
        <time>2018-06-23T16:19:19Z</time>
      </trkpt>
      <trkpt lat="47.32256" lon="-1.2861">
        <ele>91</ele>
        <time>2018-06-23T16:19:24Z</time>
      </trkpt>
      <trkpt lat="47.32263" lon="-1.28592">
        <ele>92</ele>
        <time>2018-06-23T16:19:29Z</time>
      </trkpt>
      <trkpt lat="47.32276" lon="-1.28551">
        <ele>92</ele>
        <time>2018-06-23T16:19:40Z</time>
      </trkpt>
      <trkpt lat="47.32289" lon="-1.28517">
        <ele>92</ele>
        <time>2018-06-23T16:19:49Z</time>
      </trkpt>
      <trkpt lat="47.3229" lon="-1.28513">
        <ele>92</ele>
        <time>2018-06-23T16:19:50Z</time>
      </trkpt>
      <trkpt lat="47.32303" lon="-1.28479">
        <ele>93</ele>
        <time>2018-06-23T16:19:59Z</time>
      </trkpt>
      <trkpt lat="47.32306" lon="-1.28456">
        <ele>93</ele>
        <time>2018-06-23T16:20:06Z</time>
      </trkpt>
      <trkpt lat="47.32308" lon="-1.28424">
        <ele>93</ele>
        <time>2018-06-23T16:20:14Z</time>
      </trkpt>
      <trkpt lat="47.32309" lon="-1.28421">
        <ele>94</ele>
        <time>2018-06-23T16:20:15Z</time>
      </trkpt>
      <trkpt lat="47.32314" lon="-1.28392">
        <ele>94</ele>
        <time>2018-06-23T16:20:23Z</time>
      </trkpt>
      <trkpt lat="47.32317" lon="-1.28383">
        <ele>94</ele>
        <time>2018-06-23T16:20:26Z</time>
      </trkpt>
      <trkpt lat="47.32316" lon="-1.28376">
        <ele>94</ele>
        <time>2018-06-23T16:20:28Z</time>
      </trkpt>
      <trkpt lat="47.32311" lon="-1.28357">
        <ele>94</ele>
        <time>2018-06-23T16:20:33Z</time>
      </trkpt>
      <trkpt lat="47.32311" lon="-1.28353">
        <ele>94</ele>
        <time>2018-06-23T16:20:34Z</time>
      </trkpt>
      <trkpt lat="47.32313" lon="-1.28324">
        <ele>94</ele>
        <time>2018-06-23T16:20:41Z</time>
      </trkpt>
      <trkpt lat="47.32318" lon="-1.28318">
        <ele>94</ele>
        <time>2018-06-23T16:20:44Z</time>
      </trkpt>
      <trkpt lat="47.3232" lon="-1.28318">
        <ele>94</ele>
        <time>2018-06-23T16:20:45Z</time>
      </trkpt>
      <trkpt lat="47.32322" lon="-1.28319">
        <ele>94</ele>
        <time>2018-06-23T16:20:46Z</time>
      </trkpt>
      <trkpt lat="47.32326" lon="-1.28322">
        <ele>95</ele>
        <time>2018-06-23T16:20:48Z</time>
      </trkpt>
      <trkpt lat="47.32332" lon="-1.28327">
        <ele>94</ele>
        <time>2018-06-23T16:20:51Z</time>
      </trkpt>
      <trkpt lat="47.3235" lon="-1.28339">
        <ele>94</ele>
        <time>2018-06-23T16:20:58Z</time>
      </trkpt>
      <trkpt lat="47.32374" lon="-1.28358">
        <ele>93</ele>
        <time>2018-06-23T16:21:06Z</time>
      </trkpt>
      <trkpt lat="47.32377" lon="-1.28361">
        <ele>93</ele>
        <time>2018-06-23T16:21:07Z</time>
      </trkpt>
      <trkpt lat="47.32408" lon="-1.2839">
        <ele>93</ele>
        <time>2018-06-23T16:21:16Z</time>
      </trkpt>
      <trkpt lat="47.32435" lon="-1.28412">
        <ele>93</ele>
        <time>2018-06-23T16:21:24Z</time>
      </trkpt>
      <trkpt lat="47.32473" lon="-1.28436">
        <ele>92</ele>
        <time>2018-06-23T16:21:34Z</time>
      </trkpt>
      <trkpt lat="47.32498" lon="-1.28456">
        <ele>91</ele>
        <time>2018-06-23T16:21:40Z</time>
      </trkpt>
      <trkpt lat="47.32506" lon="-1.28464">
        <ele>91</ele>
        <time>2018-06-23T16:21:42Z</time>
      </trkpt>
      <trkpt lat="47.32526" lon="-1.28485">
        <ele>90</ele>
        <time>2018-06-23T16:21:47Z</time>
      </trkpt>
      <trkpt lat="47.32547" lon="-1.28504">
        <ele>90</ele>
        <time>2018-06-23T16:21:52Z</time>
      </trkpt>
      <trkpt lat="47.32565" lon="-1.28511">
        <ele>89</ele>
        <time>2018-06-23T16:21:57Z</time>
      </trkpt>
      <trkpt lat="47.32568" lon="-1.28509">
        <ele>89</ele>
        <time>2018-06-23T16:21:58Z</time>
      </trkpt>
      <trkpt lat="47.32574" lon="-1.28502">
        <ele>89</ele>
        <time>2018-06-23T16:22:00Z</time>
      </trkpt>
      <trkpt lat="47.32577" lon="-1.2848">
        <ele>89</ele>
        <time>2018-06-23T16:22:04Z</time>
      </trkpt>
      <trkpt lat="47.32577" lon="-1.28441">
        <ele>90</ele>
        <time>2018-06-23T16:22:12Z</time>
      </trkpt>
      <trkpt lat="47.3258" lon="-1.28432">
        <ele>89</ele>
        <time>2018-06-23T16:26:06Z</time>
      </trkpt>
      <trkpt lat="47.32582" lon="-1.28421">
        <ele>89</ele>
        <time>2018-06-23T16:26:09Z</time>
      </trkpt>
      <trkpt lat="47.3259" lon="-1.28398">
        <ele>90</ele>
        <time>2018-06-23T16:26:14Z</time>
      </trkpt>
      <trkpt lat="47.32612" lon="-1.28361">
        <ele>90</ele>
        <time>2018-06-23T16:26:22Z</time>
      </trkpt>
      <trkpt lat="47.32638" lon="-1.28334">
        <ele>90</ele>
        <time>2018-06-23T16:26:30Z</time>
      </trkpt>
      <trkpt lat="47.32669" lon="-1.28315">
        <ele>89</ele>
        <time>2018-06-23T16:26:38Z</time>
      </trkpt>
      <trkpt lat="47.32712" lon="-1.28292">
        <ele>88</ele>
        <time>2018-06-23T16:26:48Z</time>
      </trkpt>
      <trkpt lat="47.32747" lon="-1.28274">
        <ele>88</ele>
        <time>2018-06-23T16:26:57Z</time>
      </trkpt>
      <trkpt lat="47.32777" lon="-1.28251">
        <ele>88</ele>
        <time>2018-06-23T16:27:05Z</time>
      </trkpt>
      <trkpt lat="47.328" lon="-1.28226">
        <ele>88</ele>
        <time>2018-06-23T16:27:13Z</time>
      </trkpt>
      <trkpt lat="47.32807" lon="-1.28211">
        <ele>88</ele>
        <time>2018-06-23T16:27:17Z</time>
      </trkpt>
      <trkpt lat="47.32815" lon="-1.28185">
        <ele>88</ele>
        <time>2018-06-23T16:27:23Z</time>
      </trkpt>
      <trkpt lat="47.32828" lon="-1.28142">
        <ele>88</ele>
        <time>2018-06-23T16:27:31Z</time>
      </trkpt>
      <trkpt lat="47.32839" lon="-1.28084">
        <ele>87</ele>
        <time>2018-06-23T16:27:41Z</time>
      </trkpt>
      <trkpt lat="47.32845" lon="-1.28022">
        <ele>86</ele>
        <time>2018-06-23T16:27:50Z</time>
      </trkpt>
      <trkpt lat="47.32849" lon="-1.27976">
        <ele>85</ele>
        <time>2018-06-23T16:27:55Z</time>
      </trkpt>
      <trkpt lat="47.3285" lon="-1.27966">
        <ele>84</ele>
        <time>2018-06-23T16:27:56Z</time>
      </trkpt>
      <trkpt lat="47.32851" lon="-1.27946">
        <ele>84</ele>
        <time>2018-06-23T16:27:58Z</time>
      </trkpt>
      <trkpt lat="47.32851" lon="-1.27917">
        <ele>82</ele>
        <time>2018-06-23T16:28:01Z</time>
      </trkpt>
      <trkpt lat="47.3285" lon="-1.27909">
        <ele>82</ele>
        <time>2018-06-23T16:28:02Z</time>
      </trkpt>
      <trkpt lat="47.3284" lon="-1.27884">
        <ele>82</ele>
        <time>2018-06-23T16:28:06Z</time>
      </trkpt>
      <trkpt lat="47.3282" lon="-1.2787">
        <ele>82</ele>
        <time>2018-06-23T16:28:11Z</time>
      </trkpt>
      <trkpt lat="47.32816" lon="-1.27869">
        <ele>82</ele>
        <time>2018-06-23T16:28:12Z</time>
      </trkpt>
      <trkpt lat="47.3279" lon="-1.27855">
        <ele>83</ele>
        <time>2018-06-23T16:28:19Z</time>
      </trkpt>
      <trkpt lat="47.32772" lon="-1.27829">
        <ele>84</ele>
        <time>2018-06-23T16:28:26Z</time>
      </trkpt>
      <trkpt lat="47.3277" lon="-1.27825">
        <ele>84</ele>
        <time>2018-06-23T16:28:27Z</time>
      </trkpt>
      <trkpt lat="47.32756" lon="-1.27798">
        <ele>85</ele>
        <time>2018-06-23T16:28:34Z</time>
      </trkpt>
      <trkpt lat="47.32754" lon="-1.27794">
        <ele>86</ele>
        <time>2018-06-23T16:28:35Z</time>
      </trkpt>
      <trkpt lat="47.3274" lon="-1.27779">
        <ele>87</ele>
        <time>2018-06-23T16:28:40Z</time>
      </trkpt>
      <trkpt lat="47.32732" lon="-1.2777">
        <ele>87</ele>
        <time>2018-06-23T16:28:43Z</time>
      </trkpt>
      <trkpt lat="47.32727" lon="-1.27763">
        <ele>88</ele>
        <time>2018-06-23T16:28:45Z</time>
      </trkpt>
      <trkpt lat="47.32717" lon="-1.27744">
        <ele>89</ele>
        <time>2018-06-23T16:28:50Z</time>
      </trkpt>
      <trkpt lat="47.32714" lon="-1.27737">
        <ele>89</ele>
        <time>2018-06-23T16:28:52Z</time>
      </trkpt>
      <trkpt lat="47.32706" lon="-1.27718">
        <ele>90</ele>
        <time>2018-06-23T16:28:57Z</time>
      </trkpt>
      <trkpt lat="47.32696" lon="-1.27695">
        <ele>91</ele>
        <time>2018-06-23T16:29:03Z</time>
      </trkpt>
      <trkpt lat="47.32694" lon="-1.27691">
        <ele>91</ele>
        <time>2018-06-23T16:29:04Z</time>
      </trkpt>
      <trkpt lat="47.3268" lon="-1.2767">
        <ele>92</ele>
        <time>2018-06-23T16:29:10Z</time>
      </trkpt>
      <trkpt lat="47.32675" lon="-1.27663">
        <ele>92</ele>
        <time>2018-06-23T16:29:12Z</time>
      </trkpt>
      <trkpt lat="47.32664" lon="-1.27652">
        <ele>93</ele>
        <time>2018-06-23T16:29:16Z</time>
      </trkpt>
      <trkpt lat="47.32647" lon="-1.27634">
        <ele>94</ele>
        <time>2018-06-23T16:29:22Z</time>
      </trkpt>
      <trkpt lat="47.32642" lon="-1.27628">
        <ele>94</ele>
        <time>2018-06-23T16:29:24Z</time>
      </trkpt>
      <trkpt lat="47.32622" lon="-1.27608">
        <ele>95</ele>
        <time>2018-06-23T16:29:32Z</time>
      </trkpt>
      <trkpt lat="47.32616" lon="-1.27603">
        <ele>95</ele>
        <time>2018-06-23T16:29:35Z</time>
      </trkpt>
      <trkpt lat="47.3261" lon="-1.27595">
        <ele>96</ele>
        <time>2018-06-23T16:29:39Z</time>
      </trkpt>
      <trkpt lat="47.32595" lon="-1.2758">
        <ele>96</ele>
        <time>2018-06-23T16:29:46Z</time>
      </trkpt>
      <trkpt lat="47.32593" lon="-1.27573">
        <ele>96</ele>
        <time>2018-06-23T16:29:51Z</time>
      </trkpt>
      <trkpt lat="47.32595" lon="-1.27569">
        <ele>96</ele>
        <time>2018-06-23T16:30:37Z</time>
      </trkpt>
      <trkpt lat="47.32597" lon="-1.27563">
        <ele>96</ele>
        <time>2018-06-23T16:30:39Z</time>
      </trkpt>
      <trkpt lat="47.32604" lon="-1.27539">
        <ele>96</ele>
        <time>2018-06-23T16:30:44Z</time>
      </trkpt>
      <trkpt lat="47.32618" lon="-1.27503">
        <ele>96</ele>
        <time>2018-06-23T16:30:51Z</time>
      </trkpt>
      <trkpt lat="47.3262" lon="-1.27497">
        <ele>96</ele>
        <time>2018-06-23T16:30:52Z</time>
      </trkpt>
      <trkpt lat="47.32629" lon="-1.27451">
        <ele>96</ele>
        <time>2018-06-23T16:31:00Z</time>
      </trkpt>
      <trkpt lat="47.32633" lon="-1.27397">
        <ele>96</ele>
        <time>2018-06-23T16:31:09Z</time>
      </trkpt>
      <trkpt lat="47.32634" lon="-1.27378">
        <ele>95</ele>
        <time>2018-06-23T16:31:12Z</time>
      </trkpt>
      <trkpt lat="47.32633" lon="-1.27365">
        <ele>95</ele>
        <time>2018-06-23T16:31:14Z</time>
      </trkpt>
      <trkpt lat="47.32632" lon="-1.27359">
        <ele>95</ele>
        <time>2018-06-23T16:31:15Z</time>
      </trkpt>
      <trkpt lat="47.32636" lon="-1.27346">
        <ele>94</ele>
        <time>2018-06-23T16:31:18Z</time>
      </trkpt>
      <trkpt lat="47.32639" lon="-1.27343">
        <ele>94</ele>
        <time>2018-06-23T16:31:19Z</time>
      </trkpt>
      <trkpt lat="47.32642" lon="-1.27341">
        <ele>94</ele>
        <time>2018-06-23T16:31:20Z</time>
      </trkpt>
      <trkpt lat="47.32646" lon="-1.27339">
        <ele>94</ele>
        <time>2018-06-23T16:31:21Z</time>
      </trkpt>
      <trkpt lat="47.3267" lon="-1.27325">
        <ele>93</ele>
        <time>2018-06-23T16:31:27Z</time>
      </trkpt>
      <trkpt lat="47.32697" lon="-1.27315">
        <ele>93</ele>
        <time>2018-06-23T16:31:33Z</time>
      </trkpt>
      <trkpt lat="47.32706" lon="-1.27312">
        <ele>93</ele>
        <time>2018-06-23T16:31:35Z</time>
      </trkpt>
      <trkpt lat="47.32715" lon="-1.27307">
        <ele>93</ele>
        <time>2018-06-23T16:31:37Z</time>
      </trkpt>
      <trkpt lat="47.32722" lon="-1.27296">
        <ele>92</ele>
        <time>2018-06-23T16:31:39Z</time>
      </trkpt>
      <trkpt lat="47.32731" lon="-1.27276">
        <ele>92</ele>
        <time>2018-06-23T16:31:42Z</time>
      </trkpt>
      <trkpt lat="47.32737" lon="-1.27263">
        <ele>92</ele>
        <time>2018-06-23T16:31:44Z</time>
      </trkpt>
      <trkpt lat="47.32755" lon="-1.27254">
        <ele>91</ele>
        <time>2018-06-23T16:31:48Z</time>
      </trkpt>
      <trkpt lat="47.32765" lon="-1.27258">
        <ele>90</ele>
        <time>2018-06-23T16:31:50Z</time>
      </trkpt>
      <trkpt lat="47.32775" lon="-1.27264">
        <ele>90</ele>
        <time>2018-06-23T16:31:52Z</time>
      </trkpt>
      <trkpt lat="47.32779" lon="-1.27268">
        <ele>89</ele>
        <time>2018-06-23T16:31:53Z</time>
      </trkpt>
      <trkpt lat="47.32787" lon="-1.27277">
        <ele>89</ele>
        <time>2018-06-23T16:31:55Z</time>
      </trkpt>
      <trkpt lat="47.32796" lon="-1.27286">
        <ele>89</ele>
        <time>2018-06-23T16:31:57Z</time>
      </trkpt>
      <trkpt lat="47.32831" lon="-1.27318">
        <ele>88</ele>
        <time>2018-06-23T16:32:05Z</time>
      </trkpt>
      <trkpt lat="47.32839" lon="-1.27325">
        <ele>88</ele>
        <time>2018-06-23T16:32:07Z</time>
      </trkpt>
      <trkpt lat="47.32855" lon="-1.27333">
        <ele>88</ele>
        <time>2018-06-23T16:32:11Z</time>
      </trkpt>
      <trkpt lat="47.32862" lon="-1.2732">
        <ele>88</ele>
        <time>2018-06-23T16:32:14Z</time>
      </trkpt>
      <trkpt lat="47.32872" lon="-1.27298">
        <ele>87</ele>
        <time>2018-06-23T16:32:18Z</time>
      </trkpt>
      <trkpt lat="47.32875" lon="-1.27297">
        <ele>87</ele>
        <time>2018-06-23T16:32:19Z</time>
      </trkpt>
      <trkpt lat="47.32881" lon="-1.27302">
        <ele>87</ele>
        <time>2018-06-23T16:32:21Z</time>
      </trkpt>
      <trkpt lat="47.32886" lon="-1.27312">
        <ele>87</ele>
        <time>2018-06-23T16:32:23Z</time>
      </trkpt>
      <trkpt lat="47.32896" lon="-1.27328">
        <ele>87</ele>
        <time>2018-06-23T16:32:26Z</time>
      </trkpt>
      <trkpt lat="47.32913" lon="-1.27352">
        <ele>86</ele>
        <time>2018-06-23T16:32:30Z</time>
      </trkpt>
      <trkpt lat="47.3293" lon="-1.27377">
        <ele>85</ele>
        <time>2018-06-23T16:32:34Z</time>
      </trkpt>
      <trkpt lat="47.32938" lon="-1.27388">
        <ele>85</ele>
        <time>2018-06-23T16:32:36Z</time>
      </trkpt>
      <trkpt lat="47.32944" lon="-1.27399">
        <ele>84</ele>
        <time>2018-06-23T16:32:38Z</time>
      </trkpt>
      <trkpt lat="47.32947" lon="-1.27404">
        <ele>84</ele>
        <time>2018-06-23T16:32:39Z</time>
      </trkpt>
      <trkpt lat="47.3295" lon="-1.27409">
        <ele>84</ele>
        <time>2018-06-23T16:32:40Z</time>
      </trkpt>
      <trkpt lat="47.32956" lon="-1.27419">
        <ele>83</ele>
        <time>2018-06-23T16:32:42Z</time>
      </trkpt>
      <trkpt lat="47.32966" lon="-1.27434">
        <ele>83</ele>
        <time>2018-06-23T16:32:45Z</time>
      </trkpt>
      <trkpt lat="47.32973" lon="-1.27444">
        <ele>82</ele>
        <time>2018-06-23T16:32:47Z</time>
      </trkpt>
      <trkpt lat="47.32988" lon="-1.27464">
        <ele>82</ele>
        <time>2018-06-23T16:32:51Z</time>
      </trkpt>
      <trkpt lat="47.32991" lon="-1.2747">
        <ele>82</ele>
        <time>2018-06-23T16:32:52Z</time>
      </trkpt>
      <trkpt lat="47.32993" lon="-1.27476">
        <ele>81</ele>
        <time>2018-06-23T16:32:53Z</time>
      </trkpt>
      <trkpt lat="47.32996" lon="-1.27489">
        <ele>81</ele>
        <time>2018-06-23T16:32:55Z</time>
      </trkpt>
      <trkpt lat="47.32998" lon="-1.27504">
        <ele>80</ele>
        <time>2018-06-23T16:32:58Z</time>
      </trkpt>
      <trkpt lat="47.33" lon="-1.27508">
        <ele>80</ele>
        <time>2018-06-23T16:33:00Z</time>
      </trkpt>
      <trkpt lat="47.33001" lon="-1.27508">
        <ele>79</ele>
        <time>2018-06-23T16:33:02Z</time>
      </trkpt>
      <trkpt lat="47.33002" lon="-1.27508">
        <ele>79</ele>
        <time>2018-06-23T16:33:03Z</time>
      </trkpt>
      <trkpt lat="47.3301" lon="-1.27506">
        <ele>79</ele>
        <time>2018-06-23T16:33:06Z</time>
      </trkpt>
      <trkpt lat="47.33026" lon="-1.27503">
        <ele>78</ele>
        <time>2018-06-23T16:33:10Z</time>
      </trkpt>
      <trkpt lat="47.3303" lon="-1.27502">
        <ele>78</ele>
        <time>2018-06-23T16:33:11Z</time>
      </trkpt>
      <trkpt lat="47.33046" lon="-1.27499">
        <ele>78</ele>
        <time>2018-06-23T16:33:17Z</time>
      </trkpt>
      <trkpt lat="47.3305" lon="-1.27494">
        <ele>78</ele>
        <time>2018-06-23T16:35:01Z</time>
      </trkpt>
      <trkpt lat="47.33051" lon="-1.27493">
        <ele>78</ele>
        <time>2018-06-23T16:35:02Z</time>
      </trkpt>
      <trkpt lat="47.33053" lon="-1.27492">
        <ele>78</ele>
        <time>2018-06-23T16:35:03Z</time>
      </trkpt>
      <trkpt lat="47.33058" lon="-1.27486">
        <ele>76</ele>
        <time>2018-06-23T16:35:10Z</time>
      </trkpt>
      <trkpt lat="47.33061" lon="-1.27481">
        <ele>76</ele>
        <time>2018-06-23T16:35:12Z</time>
      </trkpt>
      <trkpt lat="47.33066" lon="-1.2747">
        <ele>75</ele>
        <time>2018-06-23T16:35:15Z</time>
      </trkpt>
      <trkpt lat="47.33072" lon="-1.2746">
        <ele>74</ele>
        <time>2018-06-23T16:35:18Z</time>
      </trkpt>
      <trkpt lat="47.33073" lon="-1.27458">
        <ele>74</ele>
        <time>2018-06-23T16:35:19Z</time>
      </trkpt>
      <trkpt lat="47.3308" lon="-1.27452">
        <ele>73</ele>
        <time>2018-06-23T16:35:24Z</time>
      </trkpt>
      <trkpt lat="47.33084" lon="-1.27444">
        <ele>71</ele>
        <time>2018-06-23T16:35:30Z</time>
      </trkpt>
      <trkpt lat="47.33089" lon="-1.27437">
        <ele>71</ele>
        <time>2018-06-23T16:35:33Z</time>
      </trkpt>
      <trkpt lat="47.33092" lon="-1.2743">
        <ele>70</ele>
        <time>2018-06-23T16:35:35Z</time>
      </trkpt>
      <trkpt lat="47.33094" lon="-1.27428">
        <ele>70</ele>
        <time>2018-06-23T16:35:36Z</time>
      </trkpt>
      <trkpt lat="47.33103" lon="-1.27417">
        <ele>67</ele>
        <time>2018-06-23T16:35:47Z</time>
      </trkpt>
      <trkpt lat="47.33107" lon="-1.27412">
        <ele>67</ele>
        <time>2018-06-23T16:35:50Z</time>
      </trkpt>
      <trkpt lat="47.33117" lon="-1.274">
        <ele>65</ele>
        <time>2018-06-23T16:35:58Z</time>
      </trkpt>
      <trkpt lat="47.33124" lon="-1.27391">
        <ele>64</ele>
        <time>2018-06-23T16:36:02Z</time>
      </trkpt>
      <trkpt lat="47.33127" lon="-1.27387">
        <ele>64</ele>
        <time>2018-06-23T16:36:04Z</time>
      </trkpt>
      <trkpt lat="47.33136" lon="-1.27371">
        <ele>63</ele>
        <time>2018-06-23T16:36:13Z</time>
      </trkpt>
      <trkpt lat="47.33137" lon="-1.27368">
        <ele>63</ele>
        <time>2018-06-23T16:36:14Z</time>
      </trkpt>
      <trkpt lat="47.3314" lon="-1.2736">
        <ele>62</ele>
        <time>2018-06-23T16:36:17Z</time>
      </trkpt>
      <trkpt lat="47.33153" lon="-1.27344">
        <ele>60</ele>
        <time>2018-06-23T16:36:27Z</time>
      </trkpt>
      <trkpt lat="47.3316" lon="-1.27331">
        <ele>60</ele>
        <time>2018-06-23T16:36:30Z</time>
      </trkpt>
      <trkpt lat="47.33162" lon="-1.27314">
        <ele>59</ele>
        <time>2018-06-23T16:36:34Z</time>
      </trkpt>
      <trkpt lat="47.33164" lon="-1.27309">
        <ele>59</ele>
        <time>2018-06-23T16:36:35Z</time>
      </trkpt>
      <trkpt lat="47.33168" lon="-1.27296">
        <ele>58</ele>
        <time>2018-06-23T16:36:38Z</time>
      </trkpt>
      <trkpt lat="47.33174" lon="-1.2728">
        <ele>57</ele>
        <time>2018-06-23T16:36:42Z</time>
      </trkpt>
      <trkpt lat="47.33175" lon="-1.27277">
        <ele>57</ele>
        <time>2018-06-23T16:36:43Z</time>
      </trkpt>
      <trkpt lat="47.33182" lon="-1.27257">
        <ele>54</ele>
        <time>2018-06-23T16:36:53Z</time>
      </trkpt>
      <trkpt lat="47.33183" lon="-1.27253">
        <ele>54</ele>
        <time>2018-06-23T16:36:54Z</time>
      </trkpt>
      <trkpt lat="47.3319" lon="-1.2724">
        <ele>53</ele>
        <time>2018-06-23T16:36:58Z</time>
      </trkpt>
      <trkpt lat="47.33195" lon="-1.27233">
        <ele>53</ele>
        <time>2018-06-23T16:37:00Z</time>
      </trkpt>
      <trkpt lat="47.33198" lon="-1.27228">
        <ele>52</ele>
        <time>2018-06-23T16:37:02Z</time>
      </trkpt>
      <trkpt lat="47.33207" lon="-1.27219">
        <ele>50</ele>
        <time>2018-06-23T16:37:10Z</time>
      </trkpt>
      <trkpt lat="47.33211" lon="-1.27211">
        <ele>49</ele>
        <time>2018-06-23T16:37:12Z</time>
      </trkpt>
      <trkpt lat="47.33212" lon="-1.27208">
        <ele>48</ele>
        <time>2018-06-23T16:37:13Z</time>
      </trkpt>
      <trkpt lat="47.33213" lon="-1.27196">
        <ele>47</ele>
        <time>2018-06-23T16:37:16Z</time>
      </trkpt>
      <trkpt lat="47.33214" lon="-1.27191">
        <ele>46</ele>
        <time>2018-06-23T16:37:17Z</time>
      </trkpt>
      <trkpt lat="47.33213" lon="-1.2718">
        <ele>46</ele>
        <time>2018-06-23T16:37:20Z</time>
      </trkpt>
      <trkpt lat="47.33214" lon="-1.27174">
        <ele>46</ele>
        <time>2018-06-23T16:37:23Z</time>
      </trkpt>
      <trkpt lat="47.33225" lon="-1.27199">
        <ele>46</ele>
        <time>2018-06-23T16:38:40Z</time>
      </trkpt>
      <trkpt lat="47.33228" lon="-1.27199">
        <ele>46</ele>
        <time>2018-06-23T16:38:41Z</time>
      </trkpt>
      <trkpt lat="47.33247" lon="-1.27196">
        <ele>46</ele>
        <time>2018-06-23T16:38:48Z</time>
      </trkpt>
      <trkpt lat="47.33261" lon="-1.27205">
        <ele>46</ele>
        <time>2018-06-23T16:38:53Z</time>
      </trkpt>
      <trkpt lat="47.33275" lon="-1.27214">
        <ele>45</ele>
        <time>2018-06-23T16:38:57Z</time>
      </trkpt>
      <trkpt lat="47.33277" lon="-1.27216">
        <ele>44</ele>
        <time>2018-06-23T16:38:58Z</time>
      </trkpt>
      <trkpt lat="47.33278" lon="-1.27218">
        <ele>44</ele>
        <time>2018-06-23T16:39:14Z</time>
      </trkpt>
      <trkpt lat="47.33276" lon="-1.27218">
        <ele>44</ele>
        <time>2018-06-23T16:39:15Z</time>
      </trkpt>
      <trkpt lat="47.33265" lon="-1.27212">
        <ele>44</ele>
        <time>2018-06-23T16:39:21Z</time>
      </trkpt>
      <trkpt lat="47.33252" lon="-1.27207">
        <ele>45</ele>
        <time>2018-06-23T16:39:27Z</time>
      </trkpt>
      <trkpt lat="47.33246" lon="-1.27206">
        <ele>46</ele>
        <time>2018-06-23T16:39:30Z</time>
      </trkpt>
      <trkpt lat="47.33237" lon="-1.27204">
        <ele>46</ele>
        <time>2018-06-23T16:39:34Z</time>
      </trkpt>
      <trkpt lat="47.33221" lon="-1.27202">
        <ele>46</ele>
        <time>2018-06-23T16:39:42Z</time>
      </trkpt>
      <trkpt lat="47.3322" lon="-1.27198">
        <ele>46</ele>
        <time>2018-06-23T16:39:44Z</time>
      </trkpt>
      <trkpt lat="47.33219" lon="-1.27188">
        <ele>46</ele>
        <time>2018-06-23T16:39:48Z</time>
      </trkpt>
      <trkpt lat="47.33322" lon="-1.27122">
        <ele>68</ele>
        <time>2018-06-23T16:42:33Z</time>
      </trkpt>
      <trkpt lat="47.33324" lon="-1.27123">
        <ele>68</ele>
        <time>2018-06-23T16:42:34Z</time>
      </trkpt>
      <trkpt lat="47.33338" lon="-1.27122">
        <ele>68</ele>
        <time>2018-06-23T16:42:39Z</time>
      </trkpt>
      <trkpt lat="47.33341" lon="-1.27122">
        <ele>68</ele>
        <time>2018-06-23T16:42:40Z</time>
      </trkpt>
      <trkpt lat="47.3336" lon="-1.27123">
        <ele>68</ele>
        <time>2018-06-23T16:42:45Z</time>
      </trkpt>
      <trkpt lat="47.33382" lon="-1.27126">
        <ele>68</ele>
        <time>2018-06-23T16:42:52Z</time>
      </trkpt>
      <trkpt lat="47.33397" lon="-1.27127">
        <ele>69</ele>
        <time>2018-06-23T16:42:57Z</time>
      </trkpt>
      <trkpt lat="47.33403" lon="-1.27128">
        <ele>69</ele>
        <time>2018-06-23T16:42:59Z</time>
      </trkpt>
      <trkpt lat="47.33419" lon="-1.27127">
        <ele>70</ele>
        <time>2018-06-23T16:43:04Z</time>
      </trkpt>
      <trkpt lat="47.33427" lon="-1.27126">
        <ele>70</ele>
        <time>2018-06-23T16:43:07Z</time>
      </trkpt>
      <trkpt lat="47.33441" lon="-1.27122">
        <ele>70</ele>
        <time>2018-06-23T16:43:14Z</time>
      </trkpt>
      <trkpt lat="47.33447" lon="-1.27119">
        <ele>69</ele>
        <time>2018-06-23T16:45:45Z</time>
      </trkpt>
      <trkpt lat="47.33449" lon="-1.27117">
        <ele>69</ele>
        <time>2018-06-23T16:45:46Z</time>
      </trkpt>
      <trkpt lat="47.33462" lon="-1.27103">
        <ele>70</ele>
        <time>2018-06-23T16:45:51Z</time>
      </trkpt>
      <trkpt lat="47.33482" lon="-1.27083">
        <ele>70</ele>
        <time>2018-06-23T16:45:58Z</time>
      </trkpt>
      <trkpt lat="47.335" lon="-1.27059">
        <ele>71</ele>
        <time>2018-06-23T16:46:06Z</time>
      </trkpt>
      <trkpt lat="47.33505" lon="-1.27053">
        <ele>71</ele>
        <time>2018-06-23T16:46:08Z</time>
      </trkpt>
      <trkpt lat="47.33516" lon="-1.27044">
        <ele>72</ele>
        <time>2018-06-23T16:46:13Z</time>
      </trkpt>
      <trkpt lat="47.33518" lon="-1.27041">
        <ele>72</ele>
        <time>2018-06-23T16:46:14Z</time>
      </trkpt>
      <trkpt lat="47.33533" lon="-1.27028">
        <ele>73</ele>
        <time>2018-06-23T16:46:20Z</time>
      </trkpt>
      <trkpt lat="47.33535" lon="-1.27026">
        <ele>73</ele>
        <time>2018-06-23T16:46:21Z</time>
      </trkpt>
      <trkpt lat="47.33545" lon="-1.27014">
        <ele>74</ele>
        <time>2018-06-23T16:46:26Z</time>
      </trkpt>
      <trkpt lat="47.33548" lon="-1.2701">
        <ele>74</ele>
        <time>2018-06-23T16:46:27Z</time>
      </trkpt>
      <trkpt lat="47.33569" lon="-1.26984">
        <ele>74</ele>
        <time>2018-06-23T16:46:34Z</time>
      </trkpt>
      <trkpt lat="47.33579" lon="-1.26967">
        <ele>73</ele>
        <time>2018-06-23T16:46:39Z</time>
      </trkpt>
      <trkpt lat="47.33582" lon="-1.2696">
        <ele>73</ele>
        <time>2018-06-23T16:46:41Z</time>
      </trkpt>
      <trkpt lat="47.33585" lon="-1.26939">
        <ele>74</ele>
        <time>2018-06-23T16:46:47Z</time>
      </trkpt>
      <trkpt lat="47.33585" lon="-1.26926">
        <ele>74</ele>
        <time>2018-06-23T16:46:50Z</time>
      </trkpt>
      <trkpt lat="47.33584" lon="-1.2691">
        <ele>75</ele>
        <time>2018-06-23T16:46:54Z</time>
      </trkpt>
      <trkpt lat="47.33584" lon="-1.26906">
        <ele>75</ele>
        <time>2018-06-23T16:46:55Z</time>
      </trkpt>
      <trkpt lat="47.33581" lon="-1.26887">
        <ele>76</ele>
        <time>2018-06-23T16:47:00Z</time>
      </trkpt>
      <trkpt lat="47.3358" lon="-1.26879">
        <ele>77</ele>
        <time>2018-06-23T16:47:02Z</time>
      </trkpt>
      <trkpt lat="47.3358" lon="-1.26871">
        <ele>78</ele>
        <time>2018-06-23T16:47:04Z</time>
      </trkpt>
      <trkpt lat="47.33579" lon="-1.26848">
        <ele>78</ele>
        <time>2018-06-23T16:47:10Z</time>
      </trkpt>
      <trkpt lat="47.3358" lon="-1.26843">
        <ele>79</ele>
        <time>2018-06-23T16:47:11Z</time>
      </trkpt>
      <trkpt lat="47.33579" lon="-1.26821">
        <ele>80</ele>
        <time>2018-06-23T16:47:17Z</time>
      </trkpt>
      <trkpt lat="47.33579" lon="-1.26817">
        <ele>80</ele>
        <time>2018-06-23T16:47:18Z</time>
      </trkpt>
      <trkpt lat="47.33578" lon="-1.26793">
        <ele>81</ele>
        <time>2018-06-23T16:47:25Z</time>
      </trkpt>
      <trkpt lat="47.33578" lon="-1.26789">
        <ele>81</ele>
        <time>2018-06-23T16:47:26Z</time>
      </trkpt>
      <trkpt lat="47.33577" lon="-1.26759">
        <ele>82</ele>
        <time>2018-06-23T16:47:34Z</time>
      </trkpt>
      <trkpt lat="47.33576" lon="-1.26756">
        <ele>82</ele>
        <time>2018-06-23T16:47:35Z</time>
      </trkpt>
      <trkpt lat="47.33574" lon="-1.26739">
        <ele>83</ele>
        <time>2018-06-23T16:47:40Z</time>
      </trkpt>
      <trkpt lat="47.33573" lon="-1.26732">
        <ele>83</ele>
        <time>2018-06-23T16:47:42Z</time>
      </trkpt>
      <trkpt lat="47.33566" lon="-1.26704">
        <ele>84</ele>
        <time>2018-06-23T16:47:50Z</time>
      </trkpt>
      <trkpt lat="47.33564" lon="-1.26697">
        <ele>84</ele>
        <time>2018-06-23T16:47:52Z</time>
      </trkpt>
      <trkpt lat="47.33559" lon="-1.26671">
        <ele>85</ele>
        <time>2018-06-23T16:47:59Z</time>
      </trkpt>
      <trkpt lat="47.33556" lon="-1.26649">
        <ele>85</ele>
        <time>2018-06-23T16:48:05Z</time>
      </trkpt>
      <trkpt lat="47.33555" lon="-1.26644">
        <ele>85</ele>
        <time>2018-06-23T16:48:07Z</time>
      </trkpt>
      <trkpt lat="47.33557" lon="-1.26625">
        <ele>85</ele>
        <time>2018-06-23T16:48:14Z</time>
      </trkpt>
      <trkpt lat="47.33559" lon="-1.26614">
        <ele>86</ele>
        <time>2018-06-23T16:49:09Z</time>
      </trkpt>
      <trkpt lat="47.33548" lon="-1.26602">
        <ele>86</ele>
        <time>2018-06-23T16:49:14Z</time>
      </trkpt>
      <trkpt lat="47.33546" lon="-1.26599">
        <ele>86</ele>
        <time>2018-06-23T16:49:15Z</time>
      </trkpt>
      <trkpt lat="47.3353" lon="-1.26573">
        <ele>87</ele>
        <time>2018-06-23T16:49:23Z</time>
      </trkpt>
      <trkpt lat="47.33518" lon="-1.26554">
        <ele>87</ele>
        <time>2018-06-23T16:49:29Z</time>
      </trkpt>
      <trkpt lat="47.33511" lon="-1.26543">
        <ele>88</ele>
        <time>2018-06-23T16:49:32Z</time>
      </trkpt>
      <trkpt lat="47.33496" lon="-1.26517">
        <ele>88</ele>
        <time>2018-06-23T16:49:39Z</time>
      </trkpt>
      <trkpt lat="47.33491" lon="-1.26508">
        <ele>89</ele>
        <time>2018-06-23T16:49:41Z</time>
      </trkpt>
      <trkpt lat="47.33474" lon="-1.2648">
        <ele>89</ele>
        <time>2018-06-23T16:49:49Z</time>
      </trkpt>
      <trkpt lat="47.33466" lon="-1.26466">
        <ele>90</ele>
        <time>2018-06-23T16:49:53Z</time>
      </trkpt>
      <trkpt lat="47.33455" lon="-1.2645">
        <ele>90</ele>
        <time>2018-06-23T16:49:58Z</time>
      </trkpt>
      <trkpt lat="47.33435" lon="-1.26414">
        <ele>90</ele>
        <time>2018-06-23T16:50:09Z</time>
      </trkpt>
      <trkpt lat="47.33421" lon="-1.26402">
        <ele>90</ele>
        <time>2018-06-23T16:50:15Z</time>
      </trkpt>
      <trkpt lat="47.33418" lon="-1.26404">
        <ele>91</ele>
        <time>2018-06-23T16:50:16Z</time>
      </trkpt>
      <trkpt lat="47.33392" lon="-1.26419">
        <ele>91</ele>
        <time>2018-06-23T16:50:23Z</time>
      </trkpt>
      <trkpt lat="47.3337" lon="-1.2642">
        <ele>91</ele>
        <time>2018-06-23T16:50:30Z</time>
      </trkpt>
      <trkpt lat="47.33354" lon="-1.26404">
        <ele>91</ele>
        <time>2018-06-23T16:50:35Z</time>
      </trkpt>
      <trkpt lat="47.33332" lon="-1.26375">
        <ele>91</ele>
        <time>2018-06-23T16:50:43Z</time>
      </trkpt>
      <trkpt lat="47.33309" lon="-1.26343">
        <ele>91</ele>
        <time>2018-06-23T16:50:52Z</time>
      </trkpt>
      <trkpt lat="47.33289" lon="-1.26315">
        <ele>90</ele>
        <time>2018-06-23T16:51:00Z</time>
      </trkpt>
      <trkpt lat="47.33277" lon="-1.26304">
        <ele>91</ele>
        <time>2018-06-23T16:51:06Z</time>
      </trkpt>
      <trkpt lat="47.33275" lon="-1.26307">
        <ele>91</ele>
        <time>2018-06-23T16:51:07Z</time>
      </trkpt>
      <trkpt lat="47.33266" lon="-1.26318">
        <ele>91</ele>
        <time>2018-06-23T16:51:11Z</time>
      </trkpt>
      <trkpt lat="47.33263" lon="-1.26323">
        <ele>91</ele>
        <time>2018-06-23T16:51:13Z</time>
      </trkpt>
      <trkpt lat="47.33258" lon="-1.26334">
        <ele>91</ele>
        <time>2018-06-23T16:52:24Z</time>
      </trkpt>
      <trkpt lat="47.3325" lon="-1.26349">
        <ele>91</ele>
        <time>2018-06-23T16:52:28Z</time>
      </trkpt>
      <trkpt lat="47.33236" lon="-1.26382">
        <ele>90</ele>
        <time>2018-06-23T16:52:35Z</time>
      </trkpt>
      <trkpt lat="47.3323" lon="-1.26397">
        <ele>90</ele>
        <time>2018-06-23T16:52:38Z</time>
      </trkpt>
      <trkpt lat="47.33224" lon="-1.26415">
        <ele>90</ele>
        <time>2018-06-23T16:52:41Z</time>
      </trkpt>
      <trkpt lat="47.33219" lon="-1.26428">
        <ele>89</ele>
        <time>2018-06-23T16:52:43Z</time>
      </trkpt>
      <trkpt lat="47.33213" lon="-1.26447">
        <ele>88</ele>
        <time>2018-06-23T16:52:46Z</time>
      </trkpt>
      <trkpt lat="47.33209" lon="-1.26457">
        <ele>88</ele>
        <time>2018-06-23T16:52:48Z</time>
      </trkpt>
      <trkpt lat="47.33203" lon="-1.26463">
        <ele>87</ele>
        <time>2018-06-23T16:52:50Z</time>
      </trkpt>
      <trkpt lat="47.33195" lon="-1.26465">
        <ele>87</ele>
        <time>2018-06-23T16:52:52Z</time>
      </trkpt>
      <trkpt lat="47.33178" lon="-1.26463">
        <ele>86</ele>
        <time>2018-06-23T16:52:57Z</time>
      </trkpt>
      <trkpt lat="47.33155" lon="-1.26461">
        <ele>86</ele>
        <time>2018-06-23T16:53:04Z</time>
      </trkpt>
      <trkpt lat="47.33133" lon="-1.26464">
        <ele>85</ele>
        <time>2018-06-23T16:53:09Z</time>
      </trkpt>
      <trkpt lat="47.33128" lon="-1.26463">
        <ele>85</ele>
        <time>2018-06-23T16:53:10Z</time>
      </trkpt>
      <trkpt lat="47.3312" lon="-1.26462">
        <ele>83</ele>
        <time>2018-06-23T16:53:12Z</time>
      </trkpt>
      <trkpt lat="47.33112" lon="-1.26462">
        <ele>82</ele>
        <time>2018-06-23T16:53:14Z</time>
      </trkpt>
      <trkpt lat="47.33105" lon="-1.26461">
        <ele>81</ele>
        <time>2018-06-23T16:53:16Z</time>
      </trkpt>
      <trkpt lat="47.33101" lon="-1.26461">
        <ele>81</ele>
        <time>2018-06-23T16:53:17Z</time>
      </trkpt>
      <trkpt lat="47.33096" lon="-1.26461">
        <ele>80</ele>
        <time>2018-06-23T16:53:18Z</time>
      </trkpt>
      <trkpt lat="47.33088" lon="-1.26463">
        <ele>79</ele>
        <time>2018-06-23T16:53:20Z</time>
      </trkpt>
      <trkpt lat="47.33081" lon="-1.26467">
        <ele>77</ele>
        <time>2018-06-23T16:53:22Z</time>
      </trkpt>
      <trkpt lat="47.33077" lon="-1.26468">
        <ele>77</ele>
        <time>2018-06-23T16:53:23Z</time>
      </trkpt>
      <trkpt lat="47.33073" lon="-1.26468">
        <ele>76</ele>
        <time>2018-06-23T16:53:25Z</time>
      </trkpt>
      <trkpt lat="47.33069" lon="-1.26469">
        <ele>76</ele>
        <time>2018-06-23T16:53:27Z</time>
      </trkpt>
      <trkpt lat="47.33014" lon="-1.26502">
        <ele>81</ele>
        <time>2018-06-23T16:55:35Z</time>
      </trkpt>
      <trkpt lat="47.33003" lon="-1.26509">
        <ele>82</ele>
        <time>2018-06-23T16:55:40Z</time>
      </trkpt>
      <trkpt lat="47.32981" lon="-1.26514">
        <ele>82</ele>
        <time>2018-06-23T16:55:48Z</time>
      </trkpt>
      <trkpt lat="47.32967" lon="-1.26509">
        <ele>82</ele>
        <time>2018-06-23T16:55:54Z</time>
      </trkpt>
      <trkpt lat="47.32947" lon="-1.26499">
        <ele>83</ele>
        <time>2018-06-23T16:56:02Z</time>
      </trkpt>
      <trkpt lat="47.32917" lon="-1.2649">
        <ele>83</ele>
        <time>2018-06-23T16:56:13Z</time>
      </trkpt>
      <trkpt lat="47.32904" lon="-1.26485">
        <ele>84</ele>
        <time>2018-06-23T16:56:18Z</time>
      </trkpt>
      <trkpt lat="47.32896" lon="-1.26483">
        <ele>84</ele>
        <time>2018-06-23T16:56:21Z</time>
      </trkpt>
      <trkpt lat="47.32876" lon="-1.26476">
        <ele>84</ele>
        <time>2018-06-23T16:56:30Z</time>
      </trkpt>
      <trkpt lat="47.32872" lon="-1.26474">
        <ele>85</ele>
        <time>2018-06-23T16:56:32Z</time>
      </trkpt>
      <trkpt lat="47.32869" lon="-1.26468">
        <ele>86</ele>
        <time>2018-06-23T16:57:13Z</time>
      </trkpt>
      <trkpt lat="47.32869" lon="-1.26466">
        <ele>86</ele>
        <time>2018-06-23T16:57:14Z</time>
      </trkpt>
      <trkpt lat="47.32873" lon="-1.2645">
        <ele>86</ele>
        <time>2018-06-23T16:57:19Z</time>
      </trkpt>
      <trkpt lat="47.32881" lon="-1.26413">
        <ele>86</ele>
        <time>2018-06-23T16:57:27Z</time>
      </trkpt>
      <trkpt lat="47.3289" lon="-1.2638">
        <ele>86</ele>
        <time>2018-06-23T16:57:34Z</time>
      </trkpt>
      <trkpt lat="47.32898" lon="-1.26331">
        <ele>86</ele>
        <time>2018-06-23T16:57:43Z</time>
      </trkpt>
      <trkpt lat="47.32902" lon="-1.26278">
        <ele>87</ele>
        <time>2018-06-23T16:57:52Z</time>
      </trkpt>
      <trkpt lat="47.32904" lon="-1.26254">
        <ele>87</ele>
        <time>2018-06-23T16:57:56Z</time>
      </trkpt>
      <trkpt lat="47.32907" lon="-1.26218">
        <ele>87</ele>
        <time>2018-06-23T16:58:02Z</time>
      </trkpt>
      <trkpt lat="47.32918" lon="-1.26172">
        <ele>87</ele>
        <time>2018-06-23T16:58:10Z</time>
      </trkpt>
      <trkpt lat="47.32933" lon="-1.26123">
        <ele>87</ele>
        <time>2018-06-23T16:58:19Z</time>
      </trkpt>
      <trkpt lat="47.32947" lon="-1.26095">
        <ele>87</ele>
        <time>2018-06-23T16:58:25Z</time>
      </trkpt>
      <trkpt lat="47.32964" lon="-1.26084">
        <ele>87</ele>
        <time>2018-06-23T16:58:30Z</time>
      </trkpt>
      <trkpt lat="47.32983" lon="-1.26077">
        <ele>87</ele>
        <time>2018-06-23T16:58:35Z</time>
      </trkpt>
      <trkpt lat="47.32987" lon="-1.26077">
        <ele>87</ele>
        <time>2018-06-23T16:58:36Z</time>
      </trkpt>
      <trkpt lat="47.33005" lon="-1.26082">
        <ele>87</ele>
        <time>2018-06-23T16:58:41Z</time>
      </trkpt>
      <trkpt lat="47.33025" lon="-1.26089">
        <ele>87</ele>
        <time>2018-06-23T16:58:47Z</time>
      </trkpt>
      <trkpt lat="47.33055" lon="-1.26104">
        <ele>87</ele>
        <time>2018-06-23T16:58:56Z</time>
      </trkpt>
      <trkpt lat="47.33076" lon="-1.26119">
        <ele>87</ele>
        <time>2018-06-23T16:59:03Z</time>
      </trkpt>
      <trkpt lat="47.33096" lon="-1.26132">
        <ele>87</ele>
        <time>2018-06-23T16:59:11Z</time>
      </trkpt>
      <trkpt lat="47.33122" lon="-1.26149">
        <ele>88</ele>
        <time>2018-06-23T16:59:19Z</time>
      </trkpt>
      <trkpt lat="47.33132" lon="-1.26155">
        <ele>88</ele>
        <time>2018-06-23T16:59:22Z</time>
      </trkpt>
      <trkpt lat="47.33155" lon="-1.26171">
        <ele>88</ele>
        <time>2018-06-23T16:59:29Z</time>
      </trkpt>
      <trkpt lat="47.3318" lon="-1.26192">
        <ele>89</ele>
        <time>2018-06-23T16:59:37Z</time>
      </trkpt>
      <trkpt lat="47.33183" lon="-1.26195">
        <ele>89</ele>
        <time>2018-06-23T16:59:38Z</time>
      </trkpt>
      <trkpt lat="47.33201" lon="-1.26213">
        <ele>90</ele>
        <time>2018-06-23T16:59:44Z</time>
      </trkpt>
      <trkpt lat="47.33205" lon="-1.26216">
        <ele>90</ele>
        <time>2018-06-23T16:59:45Z</time>
      </trkpt>
      <trkpt lat="47.33233" lon="-1.26244">
        <ele>91</ele>
        <time>2018-06-23T16:59:54Z</time>
      </trkpt>
      <trkpt lat="47.3325" lon="-1.2626">
        <ele>91</ele>
        <time>2018-06-23T17:00:00Z</time>
      </trkpt>
      <trkpt lat="47.33253" lon="-1.26263">
        <ele>91</ele>
        <time>2018-06-23T17:00:01Z</time>
      </trkpt>
      <trkpt lat="47.33282" lon="-1.26298">
        <ele>91</ele>
        <time>2018-06-23T17:00:11Z</time>
      </trkpt>
      <trkpt lat="47.33285" lon="-1.26302">
        <ele>91</ele>
        <time>2018-06-23T17:00:12Z</time>
      </trkpt>
      <trkpt lat="47.33305" lon="-1.26329">
        <ele>91</ele>
        <time>2018-06-23T17:00:19Z</time>
      </trkpt>
      <trkpt lat="47.33335" lon="-1.26371">
        <ele>91</ele>
        <time>2018-06-23T17:00:30Z</time>
      </trkpt>
      <trkpt lat="47.3336" lon="-1.26407">
        <ele>91</ele>
        <time>2018-06-23T17:00:40Z</time>
      </trkpt>
      <trkpt lat="47.33376" lon="-1.26419">
        <ele>91</ele>
        <time>2018-06-23T17:00:46Z</time>
      </trkpt>
      <trkpt lat="47.33393" lon="-1.26414">
        <ele>90</ele>
        <time>2018-06-23T17:00:51Z</time>
      </trkpt>
      <trkpt lat="47.33413" lon="-1.26405">
        <ele>90</ele>
        <time>2018-06-23T17:00:58Z</time>
      </trkpt>
      <trkpt lat="47.33427" lon="-1.26404">
        <ele>91</ele>
        <time>2018-06-23T17:02:02Z</time>
      </trkpt>
      <trkpt lat="47.33429" lon="-1.26407">
        <ele>91</ele>
        <time>2018-06-23T17:02:04Z</time>
      </trkpt>
      <trkpt lat="47.33431" lon="-1.26411">
        <ele>91</ele>
        <time>2018-06-23T17:02:10Z</time>
      </trkpt>
      <trkpt lat="47.33434" lon="-1.26415">
        <ele>91</ele>
        <time>2018-06-23T17:02:12Z</time>
      </trkpt>
      <trkpt lat="47.33446" lon="-1.26436">
        <ele>90</ele>
        <time>2018-06-23T17:02:18Z</time>
      </trkpt>
      <trkpt lat="47.33463" lon="-1.26465">
        <ele>90</ele>
        <time>2018-06-23T17:02:26Z</time>
      </trkpt>
      <trkpt lat="47.33473" lon="-1.26484">
        <ele>90</ele>
        <time>2018-06-23T17:02:33Z</time>
      </trkpt>
      <trkpt lat="47.33479" lon="-1.26492">
        <ele>89</ele>
        <time>2018-06-23T17:02:39Z</time>
      </trkpt>
      <trkpt lat="47.3348" lon="-1.26493">
        <ele>89</ele>
        <time>2018-06-23T17:02:40Z</time>
      </trkpt>
      <trkpt lat="47.33488" lon="-1.26505">
        <ele>89</ele>
        <time>2018-06-23T17:02:57Z</time>
      </trkpt>
      <trkpt lat="47.33493" lon="-1.26511">
        <ele>89</ele>
        <time>2018-06-23T17:03:00Z</time>
      </trkpt>
      <trkpt lat="47.33509" lon="-1.26536">
        <ele>89</ele>
        <time>2018-06-23T17:03:06Z</time>
      </trkpt>
      <trkpt lat="47.33537" lon="-1.26579">
        <ele>88</ele>
        <time>2018-06-23T17:03:15Z</time>
      </trkpt>
      <trkpt lat="47.33554" lon="-1.26605">
        <ele>88</ele>
        <time>2018-06-23T17:03:20Z</time>
      </trkpt>
      <trkpt lat="47.33566" lon="-1.26618">
        <ele>87</ele>
        <time>2018-06-23T17:03:23Z</time>
      </trkpt>
      <trkpt lat="47.33585" lon="-1.26635">
        <ele>87</ele>
        <time>2018-06-23T17:03:27Z</time>
      </trkpt>
      <trkpt lat="47.3361" lon="-1.2666">
        <ele>86</ele>
        <time>2018-06-23T17:03:33Z</time>
      </trkpt>
      <trkpt lat="47.33648" lon="-1.26693">
        <ele>86</ele>
        <time>2018-06-23T17:03:43Z</time>
      </trkpt>
      <trkpt lat="47.33678" lon="-1.26722">
        <ele>86</ele>
        <time>2018-06-23T17:03:52Z</time>
      </trkpt>
      <trkpt lat="47.33702" lon="-1.26743">
        <ele>87</ele>
        <time>2018-06-23T17:04:00Z</time>
      </trkpt>
      <trkpt lat="47.33714" lon="-1.26745">
        <ele>87</ele>
        <time>2018-06-23T17:04:04Z</time>
      </trkpt>
      <trkpt lat="47.33734" lon="-1.26746">
        <ele>87</ele>
        <time>2018-06-23T17:04:10Z</time>
      </trkpt>
      <trkpt lat="47.33758" lon="-1.26746">
        <ele>87</ele>
        <time>2018-06-23T17:04:18Z</time>
      </trkpt>
      <trkpt lat="47.33762" lon="-1.26746">
        <ele>86</ele>
        <time>2018-06-23T17:04:39Z</time>
      </trkpt>
      <trkpt lat="47.33757" lon="-1.26746">
        <ele>86</ele>
        <time>2018-06-23T17:04:41Z</time>
      </trkpt>
      <trkpt lat="47.33741" lon="-1.26747">
        <ele>87</ele>
        <time>2018-06-23T17:04:48Z</time>
      </trkpt>
      <trkpt lat="47.33735" lon="-1.26754">
        <ele>87</ele>
        <time>2018-06-23T17:04:51Z</time>
      </trkpt>
      <trkpt lat="47.33736" lon="-1.26758">
        <ele>87</ele>
        <time>2018-06-23T17:04:52Z</time>
      </trkpt>
      <trkpt lat="47.33739" lon="-1.26787">
        <ele>87</ele>
        <time>2018-06-23T17:04:58Z</time>
      </trkpt>
      <trkpt lat="47.33746" lon="-1.26805">
        <ele>87</ele>
        <time>2018-06-23T17:05:03Z</time>
      </trkpt>
      <trkpt lat="47.33758" lon="-1.26806">
        <ele>86</ele>
        <time>2018-06-23T17:05:08Z</time>
      </trkpt>
      <trkpt lat="47.33766" lon="-1.26802">
        <ele>86</ele>
        <time>2018-06-23T17:05:10Z</time>
      </trkpt>
      <trkpt lat="47.33771" lon="-1.268">
        <ele>86</ele>
        <time>2018-06-23T17:05:11Z</time>
      </trkpt>
      <trkpt lat="47.33781" lon="-1.26795">
        <ele>85</ele>
        <time>2018-06-23T17:05:13Z</time>
      </trkpt>
      <trkpt lat="47.33791" lon="-1.2679">
        <ele>84</ele>
        <time>2018-06-23T17:05:15Z</time>
      </trkpt>
      <trkpt lat="47.338" lon="-1.26786">
        <ele>83</ele>
        <time>2018-06-23T17:05:17Z</time>
      </trkpt>
      <trkpt lat="47.33813" lon="-1.2678">
        <ele>82</ele>
        <time>2018-06-23T17:05:20Z</time>
      </trkpt>
      <trkpt lat="47.33826" lon="-1.26774">
        <ele>81</ele>
        <time>2018-06-23T17:05:23Z</time>
      </trkpt>
      <trkpt lat="47.33833" lon="-1.2677">
        <ele>79</ele>
        <time>2018-06-23T17:05:25Z</time>
      </trkpt>
      <trkpt lat="47.3384" lon="-1.26767">
        <ele>78</ele>
        <time>2018-06-23T17:05:27Z</time>
      </trkpt>
      <trkpt lat="47.33845" lon="-1.26765">
        <ele>77</ele>
        <time>2018-06-23T17:05:29Z</time>
      </trkpt>
      <trkpt lat="47.3385" lon="-1.26763">
        <ele>76</ele>
        <time>2018-06-23T17:05:31Z</time>
      </trkpt>
      <trkpt lat="47.33852" lon="-1.26763">
        <ele>75</ele>
        <time>2018-06-23T17:05:32Z</time>
      </trkpt>
      <trkpt lat="47.33858" lon="-1.26764">
        <ele>74</ele>
        <time>2018-06-23T17:05:34Z</time>
      </trkpt>
      <trkpt lat="47.33865" lon="-1.26769">
        <ele>73</ele>
        <time>2018-06-23T17:05:36Z</time>
      </trkpt>
      <trkpt lat="47.33868" lon="-1.26772">
        <ele>73</ele>
        <time>2018-06-23T17:05:37Z</time>
      </trkpt>
      <trkpt lat="47.33871" lon="-1.26775">
        <ele>72</ele>
        <time>2018-06-23T17:05:38Z</time>
      </trkpt>
      <trkpt lat="47.33877" lon="-1.26781">
        <ele>71</ele>
        <time>2018-06-23T17:05:40Z</time>
      </trkpt>
      <trkpt lat="47.33883" lon="-1.26789">
        <ele>69</ele>
        <time>2018-06-23T17:05:42Z</time>
      </trkpt>
      <trkpt lat="47.33886" lon="-1.26793">
        <ele>68</ele>
        <time>2018-06-23T17:05:43Z</time>
      </trkpt>
      <trkpt lat="47.33889" lon="-1.26799">
        <ele>68</ele>
        <time>2018-06-23T17:05:44Z</time>
      </trkpt>
      <trkpt lat="47.33895" lon="-1.2681">
        <ele>66</ele>
        <time>2018-06-23T17:05:46Z</time>
      </trkpt>
      <trkpt lat="47.33899" lon="-1.26822">
        <ele>65</ele>
        <time>2018-06-23T17:05:48Z</time>
      </trkpt>
      <trkpt lat="47.33901" lon="-1.26836">
        <ele>64</ele>
        <time>2018-06-23T17:05:51Z</time>
      </trkpt>
      <trkpt lat="47.339" lon="-1.26845">
        <ele>63</ele>
        <time>2018-06-23T17:05:53Z</time>
      </trkpt>
      <trkpt lat="47.33899" lon="-1.26848">
        <ele>62</ele>
        <time>2018-06-23T17:05:54Z</time>
      </trkpt>
      <trkpt lat="47.33896" lon="-1.26859">
        <ele>60</ele>
        <time>2018-06-23T17:05:57Z</time>
      </trkpt>
      <trkpt lat="47.33893" lon="-1.26865">
        <ele>59</ele>
        <time>2018-06-23T17:05:59Z</time>
      </trkpt>
      <trkpt lat="47.33891" lon="-1.26872">
        <ele>58</ele>
        <time>2018-06-23T17:06:01Z</time>
      </trkpt>
      <trkpt lat="47.33889" lon="-1.2688">
        <ele>57</ele>
        <time>2018-06-23T17:06:03Z</time>
      </trkpt>
      <trkpt lat="47.33887" lon="-1.26887">
        <ele>56</ele>
        <time>2018-06-23T17:06:05Z</time>
      </trkpt>
      <trkpt lat="47.33886" lon="-1.26894">
        <ele>55</ele>
        <time>2018-06-23T17:06:07Z</time>
      </trkpt>
      <trkpt lat="47.33886" lon="-1.26897">
        <ele>55</ele>
        <time>2018-06-23T17:06:08Z</time>
      </trkpt>
      <trkpt lat="47.33884" lon="-1.26902">
        <ele>53</ele>
        <time>2018-06-23T17:06:53Z</time>
      </trkpt>
      <trkpt lat="47.33902" lon="-1.26927">
        <ele>49</ele>
        <time>2018-06-23T17:07:26Z</time>
      </trkpt>
      <trkpt lat="47.33904" lon="-1.26933">
        <ele>49</ele>
        <time>2018-06-23T17:07:28Z</time>
      </trkpt>
      <trkpt lat="47.3391" lon="-1.26954">
        <ele>48</ele>
        <time>2018-06-23T17:07:34Z</time>
      </trkpt>
      <trkpt lat="47.33913" lon="-1.26985">
        <ele>49</ele>
        <time>2018-06-23T17:08:05Z</time>
      </trkpt>
      <trkpt lat="47.33914" lon="-1.2699">
        <ele>49</ele>
        <time>2018-06-23T17:08:06Z</time>
      </trkpt>
      <trkpt lat="47.33916" lon="-1.27012">
        <ele>47</ele>
        <time>2018-06-23T17:08:12Z</time>
      </trkpt>
      <trkpt lat="47.33918" lon="-1.27027">
        <ele>46</ele>
        <time>2018-06-23T17:08:16Z</time>
      </trkpt>
      <trkpt lat="47.33918" lon="-1.27031">
        <ele>46</ele>
        <time>2018-06-23T17:08:17Z</time>
      </trkpt>
      <trkpt lat="47.33921" lon="-1.27049">
        <ele>45</ele>
        <time>2018-06-23T17:08:22Z</time>
      </trkpt>
      <trkpt lat="47.33921" lon="-1.27053">
        <ele>45</ele>
        <time>2018-06-23T17:08:24Z</time>
      </trkpt>
      <trkpt lat="47.33921" lon="-1.27063">
        <ele>44</ele>
        <time>2018-06-23T17:08:28Z</time>
      </trkpt>
      <trkpt lat="47.33922" lon="-1.27068">
        <ele>44</ele>
        <time>2018-06-23T17:08:30Z</time>
      </trkpt>
      <trkpt lat="47.33923" lon="-1.27125">
        <ele>39</ele>
        <time>2018-06-23T17:09:51Z</time>
      </trkpt>
      <trkpt lat="47.33923" lon="-1.27126">
        <ele>39</ele>
        <time>2018-06-23T17:09:52Z</time>
      </trkpt>
      <trkpt lat="47.33925" lon="-1.27147">
        <ele>41</ele>
        <time>2018-06-23T17:10:49Z</time>
      </trkpt>
      <trkpt lat="47.33926" lon="-1.27166">
        <ele>41</ele>
        <time>2018-06-23T17:10:54Z</time>
      </trkpt>
      <trkpt lat="47.33927" lon="-1.27174">
        <ele>41</ele>
        <time>2018-06-23T17:10:56Z</time>
      </trkpt>
      <trkpt lat="47.3393" lon="-1.27192">
        <ele>40</ele>
        <time>2018-06-23T17:11:01Z</time>
      </trkpt>
      <trkpt lat="47.33931" lon="-1.27196">
        <ele>40</ele>
        <time>2018-06-23T17:11:02Z</time>
      </trkpt>
      <trkpt lat="47.3394" lon="-1.27271">
        <ele>30</ele>
        <time>2018-06-23T17:11:56Z</time>
      </trkpt>
      <trkpt lat="47.33945" lon="-1.27297">
        <ele>25</ele>
        <time>2018-06-23T17:12:15Z</time>
      </trkpt>
      <trkpt lat="47.33945" lon="-1.27316">
        <ele>25</ele>
        <time>2018-06-23T17:12:20Z</time>
      </trkpt>
      <trkpt lat="47.33944" lon="-1.27331">
        <ele>24</ele>
        <time>2018-06-23T17:12:32Z</time>
      </trkpt>
      <trkpt lat="47.33945" lon="-1.27334">
        <ele>24</ele>
        <time>2018-06-23T17:12:33Z</time>
      </trkpt>
      <trkpt lat="47.33949" lon="-1.27354">
        <ele>23</ele>
        <time>2018-06-23T17:12:38Z</time>
      </trkpt>
      <trkpt lat="47.33946" lon="-1.27366">
        <ele>23</ele>
        <time>2018-06-23T17:12:41Z</time>
      </trkpt>
      <trkpt lat="47.33942" lon="-1.27374">
        <ele>22</ele>
        <time>2018-06-23T17:12:43Z</time>
      </trkpt>
      <trkpt lat="47.3394" lon="-1.27378">
        <ele>22</ele>
        <time>2018-06-23T17:12:44Z</time>
      </trkpt>
      <trkpt lat="47.33929" lon="-1.27399">
        <ele>23</ele>
        <time>2018-06-23T17:12:49Z</time>
      </trkpt>
      <trkpt lat="47.33923" lon="-1.27408">
        <ele>24</ele>
        <time>2018-06-23T17:12:54Z</time>
      </trkpt>
      <trkpt lat="47.33922" lon="-1.27411">
        <ele>24</ele>
        <time>2018-06-23T17:12:55Z</time>
      </trkpt>
      <trkpt lat="47.33918" lon="-1.27428">
        <ele>25</ele>
        <time>2018-06-23T17:12:59Z</time>
      </trkpt>
      <trkpt lat="47.33908" lon="-1.27453">
        <ele>26</ele>
        <time>2018-06-23T17:13:06Z</time>
      </trkpt>
      <trkpt lat="47.33905" lon="-1.27459">
        <ele>26</ele>
        <time>2018-06-23T17:13:08Z</time>
      </trkpt>
    </trkseg>
  </trk>
</gpx>